<?xml version='1.0' encoding='UTF-8'?><gpx version="1.1" creator="JPX - https://github.com/jenetics/jpx" xmlns="http://www.topografix.com/GPX/1/1"><trk><trkseg><trkpt lat="43.761319918607576" lon="11.24121727659017"><ele>57.0</ele><time>2026-04-03T12:57:32.257Z</time></trkpt><trkpt lat="43.76140247873392" lon="11.241319040570454"><ele>57.0</ele><time>2026-04-03T12:57:49.939Z</time></trkpt><trkpt lat="43.76142736519163" lon="11.241017410685513"><ele>57.0</ele><time>2026-04-03T12:58:04.027Z</time></trkpt><trkpt lat="43.761555870967946" lon="11.241063303048211"><ele>57.0</ele><time>2026-04-03T12:58:06.024Z</time></trkpt><trkpt lat="43.76165604958575" lon="11.241161588811705"><ele>57.0</ele><time>2026-04-03T12:58:08.021Z</time></trkpt><trkpt lat="43.76156461041985" lon="11.241259941207357"><ele>57.0</ele><time>2026-04-03T12:58:09.022Z</time></trkpt><trkpt lat="43.761599949772325" lon="11.241360823288165"><ele>57.0</ele><time>2026-04-03T12:58:11.004Z</time></trkpt><trkpt lat="43.761419800247275" lon="11.241251292243444"><ele>57.0</ele><time>2026-04-03T12:58:15.003Z</time></trkpt><trkpt lat="43.761399153548645" lon="11.241155141864425"><ele>57.0</ele><time>2026-04-03T12:58:21.002Z</time></trkpt><trkpt lat="43.7613742744628" lon="11.241284827310626"><ele>57.0</ele><time>2026-04-03T12:58:28.373Z</time></trkpt><trkpt lat="43.76132486561765" lon="11.241215213802521"><ele>57.0</ele><time>2026-04-03T12:58:32.508Z</time></trkpt><trkpt lat="43.76122425683746" lon="11.241017490567774"><ele>57.0</ele><time>2026-04-03T13:00:14.999Z</time></trkpt><trkpt lat="43.761288918774376" lon="11.241117218792377"><ele>57.0</ele><time>2026-04-03T13:00:58.999Z</time></trkpt><trkpt lat="43.761339061059346" lon="11.241199294385884"><ele>57.0</ele><time>2026-04-03T13:01:41.999Z</time></trkpt><trkpt lat="43.761274467108116" lon="11.241242598093592"><ele>57.0</ele><time>2026-04-03T13:02:35Z</time></trkpt><trkpt lat="43.761140179353305" lon="11.241266980244436"><ele>57.0</ele><time>2026-04-03T13:02:37Z</time></trkpt><trkpt lat="43.76106949770636" lon="11.24128506128737"><ele>57.0</ele><time>2026-04-03T13:02:38Z</time></trkpt><trkpt lat="43.76095236472234" lon="11.241283312907614"><ele>57.5</ele><time>2026-04-03T13:02:40Z</time></trkpt><trkpt lat="43.76087057841472" lon="11.24131347927639"><ele>58.0</ele><time>2026-04-03T13:02:42Z</time></trkpt><trkpt lat="43.76079035179577" lon="11.241350865304373"><ele>58.5</ele><time>2026-04-03T13:02:44Z</time></trkpt><trkpt lat="43.760719429723046" lon="11.241397830699928"><ele>59.0</ele><time>2026-04-03T13:02:47Z</time></trkpt><trkpt lat="43.76065816203329" lon="11.241419102787525"><ele>59.5</ele><time>2026-04-03T13:02:48Z</time></trkpt><trkpt lat="43.76059266758737" lon="11.241429162657438"><ele>60.0</ele><time>2026-04-03T13:02:49Z</time></trkpt><trkpt lat="43.76046981749538" lon="11.241460736373474"><ele>59.4</ele><time>2026-04-03T13:02:51Z</time></trkpt><trkpt lat="43.76039507435699" lon="11.241474265509703"><ele>58.8</ele><time>2026-04-03T13:02:52Z</time></trkpt><trkpt lat="43.760313841383145" lon="11.241501900772487"><ele>58.2</ele><time>2026-04-03T13:02:54Z</time></trkpt><trkpt lat="43.760238543752415" lon="11.241556526586566"><ele>57.6</ele><time>2026-04-03T13:02:58Z</time></trkpt><trkpt lat="43.76005134561862" lon="11.24152180129235"><ele>57.0</ele><time>2026-04-03T13:03:06Z</time></trkpt><trkpt lat="43.75998612381416" lon="11.241510583034957"><ele>57.0</ele><time>2026-04-03T13:03:07Z</time></trkpt><trkpt lat="43.75991217184083" lon="11.24149897729517"><ele>57.0</ele><time>2026-04-03T13:03:08Z</time></trkpt><trkpt lat="43.75982174945747" lon="11.241482959664827"><ele>57.0</ele><time>2026-04-03T13:03:09Z</time></trkpt><trkpt lat="43.759737700681974" lon="11.241459908588453"><ele>57.0</ele><time>2026-04-03T13:03:10Z</time></trkpt><trkpt lat="43.759665836946034" lon="11.241435862275278"><ele>57.0</ele><time>2026-04-03T13:03:11Z</time></trkpt><trkpt lat="43.75958907553483" lon="11.241407985565665"><ele>57.0</ele><time>2026-04-03T13:03:12Z</time></trkpt><trkpt lat="43.759510286866714" lon="11.241390163204908"><ele>57.833333333333336</ele><time>2026-04-03T13:03:13Z</time></trkpt><trkpt lat="43.75943102807455" lon="11.241366996057092"><ele>58.66666666666667</ele><time>2026-04-03T13:03:14Z</time></trkpt><trkpt lat="43.759365720518375" lon="11.241334953658948"><ele>59.5</ele><time>2026-04-03T13:03:15Z</time></trkpt><trkpt lat="43.75929369994049" lon="11.241317784728816"><ele>60.333333333333336</ele><time>2026-04-03T13:03:16Z</time></trkpt><trkpt lat="43.75921525465516" lon="11.241298621432385"><ele>61.16666666666667</ele><time>2026-04-03T13:03:17Z</time></trkpt><trkpt lat="43.7591147344465" lon="11.241274080272603"><ele>62.0</ele><time>2026-04-03T13:03:18Z</time></trkpt><trkpt lat="43.7590111760211" lon="11.241225910404093"><ele>62.25</ele><time>2026-04-03T13:03:19Z</time></trkpt><trkpt lat="43.75889227195908" lon="11.24117489413056"><ele>62.5</ele><time>2026-04-03T13:03:20Z</time></trkpt><trkpt lat="43.75876579431821" lon="11.241123849364904"><ele>62.75</ele><time>2026-04-03T13:03:21Z</time></trkpt><trkpt lat="43.75864543404046" lon="11.241086798820186"><ele>63.0</ele><time>2026-04-03T13:03:22Z</time></trkpt><trkpt lat="43.75852941892213" lon="11.241038829677088"><ele>63.599999999999994</ele><time>2026-04-03T13:03:23Z</time></trkpt><trkpt lat="43.75840547884557" lon="11.24098750432132"><ele>64.19999999999999</ele><time>2026-04-03T13:03:24Z</time></trkpt><trkpt lat="43.75830011726642" lon="11.240943733941025"><ele>64.8</ele><time>2026-04-03T13:03:25Z</time></trkpt><trkpt lat="43.75821147650853" lon="11.240906362857642"><ele>65.39999999999999</ele><time>2026-04-03T13:03:26Z</time></trkpt><trkpt lat="43.75811880562346" lon="11.240859756008035"><ele>66.0</ele><time>2026-04-03T13:03:27Z</time></trkpt><trkpt lat="43.75802524136358" lon="11.240823849200243"><ele>66.0</ele><time>2026-04-03T13:03:28Z</time></trkpt><trkpt lat="43.757943548568974" lon="11.24080387192561"><ele>66.0</ele><time>2026-04-03T13:03:29Z</time></trkpt><trkpt lat="43.75786375304007" lon="11.240755074999727"><ele>66.0</ele><time>2026-04-03T13:03:30Z</time></trkpt><trkpt lat="43.75777368961373" lon="11.240724699675095"><ele>66.0</ele><time>2026-04-03T13:03:31Z</time></trkpt><trkpt lat="43.75768000678577" lon="11.240693679383359"><ele>66.0</ele><time>2026-04-03T13:03:32Z</time></trkpt><trkpt lat="43.757584906218355" lon="11.240651090613792"><ele>67.0</ele><time>2026-04-03T13:03:33Z</time></trkpt><trkpt lat="43.757483451036286" lon="11.240615879128411"><ele>68.0</ele><time>2026-04-03T13:03:34Z</time></trkpt><trkpt lat="43.75735605416276" lon="11.240571351822892"><ele>69.0</ele><time>2026-04-03T13:03:35Z</time></trkpt><trkpt lat="43.7572101788546" lon="11.240516174362355"><ele>70.0</ele><time>2026-04-03T13:03:36Z</time></trkpt><trkpt lat="43.75705423305955" lon="11.24046813715009"><ele>70.0</ele><time>2026-04-03T13:03:37Z</time></trkpt><trkpt lat="43.75691335796203" lon="11.24038101795932"><ele>70.0</ele><time>2026-04-03T13:03:38Z</time></trkpt><trkpt lat="43.75678861290091" lon="11.240323252494246"><ele>70.0</ele><time>2026-04-03T13:03:39Z</time></trkpt><trkpt lat="43.75665798549953" lon="11.240306065236071"><ele>70.0</ele><time>2026-04-03T13:03:40Z</time></trkpt><trkpt lat="43.75655199522525" lon="11.240270482305805"><ele>70.0</ele><time>2026-04-03T13:03:41Z</time></trkpt><trkpt lat="43.756437434216544" lon="11.240238101087774"><ele>70.0</ele><time>2026-04-03T13:03:42Z</time></trkpt><trkpt lat="43.75631790218954" lon="11.240227776158328"><ele>70.0</ele><time>2026-04-03T13:03:43Z</time></trkpt><trkpt lat="43.756205264303986" lon="11.24019228142016"><ele>70.0</ele><time>2026-04-03T13:03:44Z</time></trkpt><trkpt lat="43.756098116487564" lon="11.240156122475058"><ele>71.25</ele><time>2026-04-03T13:03:45Z</time></trkpt><trkpt lat="43.75599096268969" lon="11.240125616282445"><ele>72.5</ele><time>2026-04-03T13:03:46Z</time></trkpt><trkpt lat="43.755873154409244" lon="11.240093070304761"><ele>73.75</ele><time>2026-04-03T13:03:47Z</time></trkpt><trkpt lat="43.75573818092413" lon="11.240060293883865"><ele>75.0</ele><time>2026-04-03T13:03:48Z</time></trkpt><trkpt lat="43.7555915372779" lon="11.240016090136681"><ele>75.0</ele><time>2026-04-03T13:03:49Z</time></trkpt><trkpt lat="43.75543585079644" lon="11.239963414690653"><ele>75.0</ele><time>2026-04-03T13:03:50Z</time></trkpt><trkpt lat="43.75528157050145" lon="11.23989915393011"><ele>75.0</ele><time>2026-04-03T13:03:51Z</time></trkpt><trkpt lat="43.75511222216936" lon="11.239834824316196"><ele>78.0</ele><time>2026-04-03T13:03:52Z</time></trkpt><trkpt lat="43.75495675742339" lon="11.23976679850063"><ele>81.0</ele><time>2026-04-03T13:03:53Z</time></trkpt><trkpt lat="43.75478691011229" lon="11.239683151253022"><ele>84.0</ele><time>2026-04-03T13:03:54Z</time></trkpt><trkpt lat="43.75462452099509" lon="11.239617222406045"><ele>84.0</ele><time>2026-04-03T13:03:55Z</time></trkpt><trkpt lat="43.75445666903476" lon="11.239556924905951"><ele>84.0</ele><time>2026-04-03T13:03:56Z</time></trkpt><trkpt lat="43.75428562250521" lon="11.239497552283222"><ele>84.0</ele><time>2026-04-03T13:03:57Z</time></trkpt><trkpt lat="43.754117052555664" lon="11.239439771654155"><ele>86.33333333333333</ele><time>2026-04-03T13:03:58Z</time></trkpt><trkpt lat="43.753949676864984" lon="11.23938410070189"><ele>88.66666666666666</ele><time>2026-04-03T13:03:59Z</time></trkpt><trkpt lat="43.75377790891662" lon="11.239335519416732"><ele>91.0</ele><time>2026-04-03T13:04:00Z</time></trkpt><trkpt lat="43.753613886489525" lon="11.23927980593289"><ele>92.6</ele><time>2026-04-03T13:04:01Z</time></trkpt><trkpt lat="43.75348345065123" lon="11.239230234031325"><ele>94.19999999999999</ele><time>2026-04-03T13:04:02Z</time></trkpt><trkpt lat="43.753371028197165" lon="11.239189700319145"><ele>95.80000000000001</ele><time>2026-04-03T13:04:03Z</time></trkpt><trkpt lat="43.75327400587808" lon="11.239155260658364"><ele>97.4</ele><time>2026-04-03T13:04:04Z</time></trkpt><trkpt lat="43.75318133786608" lon="11.239120189197104"><ele>99.0</ele><time>2026-04-03T13:04:05Z</time></trkpt><trkpt lat="43.75308061765851" lon="11.239081378524672"><ele>99.0</ele><time>2026-04-03T13:04:06Z</time></trkpt><trkpt lat="43.752973682951726" lon="11.23903247929136"><ele>99.0</ele><time>2026-04-03T13:04:07Z</time></trkpt><trkpt lat="43.75285937918784" lon="11.238969880913947"><ele>99.0</ele><time>2026-04-03T13:04:08Z</time></trkpt><trkpt lat="43.75274512590799" lon="11.238890351155774"><ele>99.0</ele><time>2026-04-03T13:04:09Z</time></trkpt><trkpt lat="43.75263417810109" lon="11.238795822614728"><ele>100.0</ele><time>2026-04-03T13:04:10Z</time></trkpt><trkpt lat="43.75254321193511" lon="11.238714109311434"><ele>101.0</ele><time>2026-04-03T13:04:11Z</time></trkpt><trkpt lat="43.75244930841148" lon="11.238621274963359"><ele>102.0</ele><time>2026-04-03T13:04:12Z</time></trkpt><trkpt lat="43.752351570374586" lon="11.238524117310787"><ele>103.0</ele><time>2026-04-03T13:04:13Z</time></trkpt><trkpt lat="43.75225164699251" lon="11.238422401026051"><ele>103.0</ele><time>2026-04-03T13:04:14Z</time></trkpt><trkpt lat="43.752137785157565" lon="11.238318683706677"><ele>103.0</ele><time>2026-04-03T13:04:15Z</time></trkpt><trkpt lat="43.75201824150395" lon="11.238187238139295"><ele>103.0</ele><time>2026-04-03T13:04:16Z</time></trkpt><trkpt lat="43.75191522232283" lon="11.238042643502867"><ele>103.0</ele><time>2026-04-03T13:04:17Z</time></trkpt><trkpt lat="43.75180410823937" lon="11.237917857799163"><ele>101.66666666666667</ele><time>2026-04-03T13:04:18Z</time></trkpt><trkpt lat="43.7516851611541" lon="11.237783828419689"><ele>100.33333333333334</ele><time>2026-04-03T13:04:19Z</time></trkpt><trkpt lat="43.75154749865451" lon="11.237655769820886"><ele>99.0</ele><time>2026-04-03T13:04:20Z</time></trkpt><trkpt lat="43.75143847109273" lon="11.23751931506609"><ele>99.0</ele><time>2026-04-03T13:04:21Z</time></trkpt><trkpt lat="43.75134816243298" lon="11.23738516096162"><ele>99.0</ele><time>2026-04-03T13:04:22Z</time></trkpt><trkpt lat="43.751256456434604" lon="11.237262317286003"><ele>99.0</ele><time>2026-04-03T13:04:23Z</time></trkpt><trkpt lat="43.751165129566715" lon="11.237144868611681"><ele>99.0</ele><time>2026-04-03T13:04:24Z</time></trkpt><trkpt lat="43.751073787967265" lon="11.237056995145926"><ele>97.4</ele><time>2026-04-03T13:04:25Z</time></trkpt><trkpt lat="43.75099413624732" lon="11.236970773792105"><ele>95.80000000000001</ele><time>2026-04-03T13:04:26Z</time></trkpt><trkpt lat="43.75091061427234" lon="11.236900954775882"><ele>94.19999999999999</ele><time>2026-04-03T13:04:27Z</time></trkpt><trkpt lat="43.750832585435546" lon="11.236822015672857"><ele>92.6</ele><time>2026-04-03T13:04:28Z</time></trkpt><trkpt lat="43.750757170938655" lon="11.236730310305209"><ele>91.0</ele><time>2026-04-03T13:04:29Z</time></trkpt><trkpt lat="43.75067681210652" lon="11.23663449576714"><ele>91.0</ele><time>2026-04-03T13:04:30Z</time></trkpt><trkpt lat="43.7505980498102" lon="11.236546094566181"><ele>91.0</ele><time>2026-04-03T13:04:31Z</time></trkpt><trkpt lat="43.750524539067904" lon="11.236454325085996"><ele>91.0</ele><time>2026-04-03T13:04:32Z</time></trkpt><trkpt lat="43.75045065831969" lon="11.236368303223642"><ele>91.0</ele><time>2026-04-03T13:04:33Z</time></trkpt><trkpt lat="43.75036528280646" lon="11.236250811479294"><ele>91.0</ele><time>2026-04-03T13:04:34Z</time></trkpt><trkpt lat="43.75027108581051" lon="11.236138149123487"><ele>89.75</ele><time>2026-04-03T13:04:35Z</time></trkpt><trkpt lat="43.750175141764366" lon="11.236026334262903"><ele>88.5</ele><time>2026-04-03T13:04:36Z</time></trkpt><trkpt lat="43.750078469337026" lon="11.235921986524714"><ele>87.25</ele><time>2026-04-03T13:04:37Z</time></trkpt><trkpt lat="43.74998840070402" lon="11.235838587655179"><ele>86.0</ele><time>2026-04-03T13:04:38Z</time></trkpt><trkpt lat="43.74991172175158" lon="11.235755780905738"><ele>86.0</ele><time>2026-04-03T13:04:39Z</time></trkpt><trkpt lat="43.74982830374369" lon="11.23568069729368"><ele>86.0</ele><time>2026-04-03T13:04:40Z</time></trkpt><trkpt lat="43.74974294156677" lon="11.235615444467436"><ele>86.0</ele><time>2026-04-03T13:04:41Z</time></trkpt><trkpt lat="43.74965462498377" lon="11.235541003387079"><ele>86.0</ele><time>2026-04-03T13:04:42Z</time></trkpt><trkpt lat="43.74957416903528" lon="11.235451369671079"><ele>86.0</ele><time>2026-04-03T13:04:43Z</time></trkpt><trkpt lat="43.74950568180249" lon="11.235349938100665"><ele>86.0</ele><time>2026-04-03T13:04:44Z</time></trkpt><trkpt lat="43.74945654701915" lon="11.235253456695949"><ele>86.0</ele><time>2026-04-03T13:04:45Z</time></trkpt><trkpt lat="43.74940964665997" lon="11.235159736451397"><ele>86.0</ele><time>2026-04-03T13:04:46Z</time></trkpt><trkpt lat="43.74934051157932" lon="11.234995299828586"><ele>86.0</ele><time>2026-04-03T13:04:48Z</time></trkpt><trkpt lat="43.74930008986244" lon="11.234901203872276"><ele>86.0</ele><time>2026-04-03T13:04:49Z</time></trkpt><trkpt lat="43.74925537677859" lon="11.234808430837319"><ele>85.33333333333334</ele><time>2026-04-03T13:04:50Z</time></trkpt><trkpt lat="43.74920463754119" lon="11.23471410088266"><ele>84.66666666666667</ele><time>2026-04-03T13:04:51Z</time></trkpt><trkpt lat="43.74915809702174" lon="11.234614246471123"><ele>84.0</ele><time>2026-04-03T13:04:52Z</time></trkpt><trkpt lat="43.74910929216752" lon="11.23451834721541"><ele>83.33333333333333</ele><time>2026-04-03T13:04:53Z</time></trkpt><trkpt lat="43.74906556195376" lon="11.234418913412505"><ele>82.66666666666666</ele><time>2026-04-03T13:04:54Z</time></trkpt><trkpt lat="43.74901604144517" lon="11.234308122991974"><ele>82.0</ele><time>2026-04-03T13:04:55Z</time></trkpt><trkpt lat="43.74896534211931" lon="11.234213335981362"><ele>82.0</ele><time>2026-04-03T13:04:56Z</time></trkpt><trkpt lat="43.748915516697615" lon="11.23411268599766"><ele>82.0</ele><time>2026-04-03T13:04:57Z</time></trkpt><trkpt lat="43.748850809662926" lon="11.234004055678655"><ele>82.0</ele><time>2026-04-03T13:04:58Z</time></trkpt><trkpt lat="43.748782015296" lon="11.233883736547142"><ele>82.0</ele><time>2026-04-03T13:04:59Z</time></trkpt><trkpt lat="43.74870959448593" lon="11.233738112558965"><ele>82.0</ele><time>2026-04-03T13:05:00Z</time></trkpt><trkpt lat="43.748649761334754" lon="11.233630899946938"><ele>82.0</ele><time>2026-04-03T13:05:01Z</time></trkpt><trkpt lat="43.748618613750025" lon="11.233534083323935"><ele>82.0</ele><time>2026-04-03T13:05:02Z</time></trkpt><trkpt lat="43.7485755741462" lon="11.23339614401709"><ele>82.0</ele><time>2026-04-03T13:05:04Z</time></trkpt><trkpt lat="43.748587662001334" lon="11.233278416442742"><ele>82.0</ele><time>2026-04-03T13:05:06Z</time></trkpt><trkpt lat="43.748511098254944" lon="11.23325100206775"><ele>82.0</ele><time>2026-04-03T13:05:07Z</time></trkpt><trkpt lat="43.74846906989981" lon="11.233144403177155"><ele>82.0</ele><time>2026-04-03T13:05:15Z</time></trkpt><trkpt lat="43.748378264785394" lon="11.232986914696355"><ele>81.75</ele><time>2026-04-03T13:05:17Z</time></trkpt><trkpt lat="43.74831730571676" lon="11.232861199241093"><ele>81.5</ele><time>2026-04-03T13:05:18Z</time></trkpt><trkpt lat="43.74826371198082" lon="11.232738344745611"><ele>81.25</ele><time>2026-04-03T13:05:19Z</time></trkpt><trkpt lat="43.74820593781937" lon="11.232610261376326"><ele>81.0</ele><time>2026-04-03T13:05:20Z</time></trkpt><trkpt lat="43.74813911490237" lon="11.232460074280693"><ele>81.25</ele><time>2026-04-03T13:05:21Z</time></trkpt><trkpt lat="43.7480638817671" lon="11.232292701232145"><ele>81.5</ele><time>2026-04-03T13:05:22Z</time></trkpt><trkpt lat="43.747982807499874" lon="11.232124518790087"><ele>81.75</ele><time>2026-04-03T13:05:23Z</time></trkpt><trkpt lat="43.747903898955265" lon="11.231954806096063"><ele>82.0</ele><time>2026-04-03T13:05:24Z</time></trkpt><trkpt lat="43.74782737342698" lon="11.231787957619119"><ele>82.0</ele><time>2026-04-03T13:05:25Z</time></trkpt><trkpt lat="43.74774463222154" lon="11.231610268249462"><ele>82.0</ele><time>2026-04-03T13:05:26Z</time></trkpt><trkpt lat="43.74765577156821" lon="11.231423746128558"><ele>82.0</ele><time>2026-04-03T13:05:27Z</time></trkpt><trkpt lat="43.74757497769799" lon="11.231248575341004"><ele>81.5</ele><time>2026-04-03T13:05:28Z</time></trkpt><trkpt lat="43.74749745360359" lon="11.231080620795652"><ele>81.0</ele><time>2026-04-03T13:05:29Z</time></trkpt><trkpt lat="43.74741956951099" lon="11.230919498169486"><ele>80.5</ele><time>2026-04-03T13:05:30Z</time></trkpt><trkpt lat="43.74735091555764" lon="11.23077114987348"><ele>80.0</ele><time>2026-04-03T13:05:31Z</time></trkpt><trkpt lat="43.74728794446623" lon="11.230632723231366"><ele>80.0</ele><time>2026-04-03T13:05:32Z</time></trkpt><trkpt lat="43.74722379504749" lon="11.23050584580991"><ele>80.0</ele><time>2026-04-03T13:05:33Z</time></trkpt><trkpt lat="43.74714490289362" lon="11.230369861420082"><ele>80.0</ele><time>2026-04-03T13:05:34Z</time></trkpt><trkpt lat="43.74706027844782" lon="11.23023267615958"><ele>80.0</ele><time>2026-04-03T13:05:35Z</time></trkpt><trkpt lat="43.746965765308715" lon="11.230101404141294"><ele>78.33333333333334</ele><time>2026-04-03T13:05:36Z</time></trkpt><trkpt lat="43.74685643745816" lon="11.229970445642241"><ele>76.66666666666667</ele><time>2026-04-03T13:05:37Z</time></trkpt><trkpt lat="43.74673602767964" lon="11.229824776781685"><ele>75.0</ele><time>2026-04-03T13:05:38Z</time></trkpt><trkpt lat="43.74660866072713" lon="11.22966691782275"><ele>75.0</ele><time>2026-04-03T13:05:39Z</time></trkpt><trkpt lat="43.74647322369437" lon="11.229505055512087"><ele>75.0</ele><time>2026-04-03T13:05:40Z</time></trkpt><trkpt lat="43.7463380136366" lon="11.229334634618349"><ele>75.0</ele><time>2026-04-03T13:05:41Z</time></trkpt><trkpt lat="43.74621279322881" lon="11.22917639043519"><ele>75.0</ele><time>2026-04-03T13:05:42Z</time></trkpt><trkpt lat="43.74610538940503" lon="11.229041531364041"><ele>75.0</ele><time>2026-04-03T13:05:43Z</time></trkpt><trkpt lat="43.74600573632447" lon="11.228923972546424"><ele>75.0</ele><time>2026-04-03T13:05:44Z</time></trkpt><trkpt lat="43.74590585354654" lon="11.228805382590089"><ele>75.0</ele><time>2026-04-03T13:05:45Z</time></trkpt><trkpt lat="43.745814542222945" lon="11.228684703281704"><ele>75.0</ele><time>2026-04-03T13:05:46Z</time></trkpt><trkpt lat="43.745731624597454" lon="11.228574488886824"><ele>75.0</ele><time>2026-04-03T13:05:47Z</time></trkpt><trkpt lat="43.74566078480687" lon="11.228474374767625"><ele>75.0</ele><time>2026-04-03T13:05:48Z</time></trkpt><trkpt lat="43.74559258446212" lon="11.228391338012344"><ele>75.0</ele><time>2026-04-03T13:05:49Z</time></trkpt><trkpt lat="43.745428407345976" lon="11.228190344926418"><ele>75.0</ele><time>2026-04-03T13:05:51Z</time></trkpt><trkpt lat="43.7453173470128" lon="11.228063281883266"><ele>75.0</ele><time>2026-04-03T13:05:52Z</time></trkpt><trkpt lat="43.74519671452515" lon="11.227932942418784"><ele>75.0</ele><time>2026-04-03T13:05:53Z</time></trkpt><trkpt lat="43.74506924144944" lon="11.227819730197911"><ele>75.0</ele><time>2026-04-03T13:05:54Z</time></trkpt><trkpt lat="43.74494578404807" lon="11.227715307059286"><ele>75.0</ele><time>2026-04-03T13:05:55Z</time></trkpt><trkpt lat="43.74482878151663" lon="11.227620234321599"><ele>75.0</ele><time>2026-04-03T13:05:56Z</time></trkpt><trkpt lat="43.74470413069545" lon="11.22751225790654"><ele>75.0</ele><time>2026-04-03T13:05:57Z</time></trkpt><trkpt lat="43.74457236438331" lon="11.22739472341621"><ele>75.0</ele><time>2026-04-03T13:05:58Z</time></trkpt><trkpt lat="43.744438283816365" lon="11.227265388102024"><ele>74.33333333333333</ele><time>2026-04-03T13:05:59Z</time></trkpt><trkpt lat="43.74429226238464" lon="11.227128993283092"><ele>73.66666666666666</ele><time>2026-04-03T13:06:00Z</time></trkpt><trkpt lat="43.744145533162595" lon="11.22699452219883"><ele>73.0</ele><time>2026-04-03T13:06:01Z</time></trkpt><trkpt lat="43.743994105773425" lon="11.226858008279793"><ele>73.0</ele><time>2026-04-03T13:06:02Z</time></trkpt><trkpt lat="43.74385041744179" lon="11.226727289775214"><ele>73.0</ele><time>2026-04-03T13:06:03Z</time></trkpt><trkpt lat="43.74370405911183" lon="11.226591164678695"><ele>73.0</ele><time>2026-04-03T13:06:04Z</time></trkpt><trkpt lat="43.743544748239884" lon="11.226449368523815"><ele>73.0</ele><time>2026-04-03T13:06:05Z</time></trkpt><trkpt lat="43.74336962884161" lon="11.226299100519574"><ele>73.0</ele><time>2026-04-03T13:06:06Z</time></trkpt><trkpt lat="43.7432072969071" lon="11.226161726057715"><ele>73.0</ele><time>2026-04-03T13:06:07Z</time></trkpt><trkpt lat="43.7430688756262" lon="11.226037418144386"><ele>73.0</ele><time>2026-04-03T13:06:08Z</time></trkpt><trkpt lat="43.74294499919999" lon="11.225929746756657"><ele>73.0</ele><time>2026-04-03T13:06:09Z</time></trkpt><trkpt lat="43.74283527729376" lon="11.225835280096996"><ele>73.0</ele><time>2026-04-03T13:06:10Z</time></trkpt><trkpt lat="43.74273258856399" lon="11.225744743442773"><ele>73.0</ele><time>2026-04-03T13:06:11Z</time></trkpt><trkpt lat="43.742640532623824" lon="11.225644970660085"><ele>72.66666666666666</ele><time>2026-04-03T13:06:12Z</time></trkpt><trkpt lat="43.74256458176401" lon="11.225536128731912"><ele>72.33333333333333</ele><time>2026-04-03T13:06:13Z</time></trkpt><trkpt lat="43.74249626658388" lon="11.225442316951144"><ele>72.0</ele><time>2026-04-03T13:06:14Z</time></trkpt><trkpt lat="43.74244820458311" lon="11.225353606494092"><ele>71.66666666666667</ele><time>2026-04-03T13:06:15Z</time></trkpt><trkpt lat="43.74241009736914" lon="11.22528328224869"><ele>71.33333333333334</ele><time>2026-04-03T13:06:16Z</time></trkpt><trkpt lat="43.74240036146968" lon="11.225161976069833"><ele>71.0</ele><time>2026-04-03T13:06:18Z</time></trkpt><trkpt lat="43.74240408529989" lon="11.224978385262594"><ele>71.0</ele><time>2026-04-03T13:06:20Z</time></trkpt><trkpt lat="43.74231828407728" lon="11.224781853640843"><ele>71.0</ele><time>2026-04-03T13:06:22Z</time></trkpt><trkpt lat="43.74221122080039" lon="11.224756668427649"><ele>71.0</ele><time>2026-04-03T13:06:23Z</time></trkpt><trkpt lat="43.74210581143774" lon="11.224789358981674"><ele>71.0</ele><time>2026-04-03T13:06:24Z</time></trkpt><trkpt lat="43.742002832307485" lon="11.224852071456182"><ele>71.0</ele><time>2026-04-03T13:06:25Z</time></trkpt><trkpt lat="43.74189800189632" lon="11.224880366803179"><ele>71.0</ele><time>2026-04-03T13:06:26Z</time></trkpt><trkpt lat="43.74179933873459" lon="11.224867634476837"><ele>71.0</ele><time>2026-04-03T13:06:27Z</time></trkpt><trkpt lat="43.74171048694123" lon="11.224832254361912"><ele>71.0</ele><time>2026-04-03T13:06:28Z</time></trkpt><trkpt lat="43.74162816408213" lon="11.224779980513427"><ele>71.0</ele><time>2026-04-03T13:06:29Z</time></trkpt><trkpt lat="43.741547615749084" lon="11.224728003700797"><ele>70.6</ele><time>2026-04-03T13:06:30Z</time></trkpt><trkpt lat="43.741453107844514" lon="11.224675604584334"><ele>70.19999999999999</ele><time>2026-04-03T13:06:31Z</time></trkpt><trkpt lat="43.7413546745977" lon="11.224630402404134"><ele>69.80000000000001</ele><time>2026-04-03T13:06:32Z</time></trkpt><trkpt lat="43.74125691096452" lon="11.224592135521672"><ele>69.4</ele><time>2026-04-03T13:06:33Z</time></trkpt><trkpt lat="43.741158163747116" lon="11.22456064609813"><ele>69.0</ele><time>2026-04-03T13:06:34Z</time></trkpt><trkpt lat="43.74106207198146" lon="11.224531300703749"><ele>68.66666666666667</ele><time>2026-04-03T13:06:35Z</time></trkpt><trkpt lat="43.740968292326194" lon="11.224506065224872"><ele>68.33333333333333</ele><time>2026-04-03T13:06:36Z</time></trkpt><trkpt lat="43.74088157639343" lon="11.224487629153927"><ele>68.0</ele><time>2026-04-03T13:06:37Z</time></trkpt><trkpt lat="43.740800108843004" lon="11.224476583829942"><ele>67.66666666666666</ele><time>2026-04-03T13:06:38Z</time></trkpt><trkpt lat="43.74072522139852" lon="11.224466854672704"><ele>67.33333333333333</ele><time>2026-04-03T13:06:39Z</time></trkpt><trkpt lat="43.740617841066545" lon="11.224440552030718"><ele>67.0</ele><time>2026-04-03T13:06:41Z</time></trkpt><trkpt lat="43.74053676059797" lon="11.224403909718465"><ele>67.0</ele><time>2026-04-03T13:06:46Z</time></trkpt><trkpt lat="43.74044585013675" lon="11.224342449635515"><ele>67.0</ele><time>2026-04-03T13:06:48Z</time></trkpt><trkpt lat="43.74034379806554" lon="11.224374699097396"><ele>67.0</ele><time>2026-04-03T13:06:50Z</time></trkpt><trkpt lat="43.74021881826738" lon="11.224422233688967"><ele>67.0</ele><time>2026-04-03T13:06:52Z</time></trkpt><trkpt lat="43.7401521574842" lon="11.224397339682046"><ele>67.0</ele><time>2026-04-03T13:06:53Z</time></trkpt><trkpt lat="43.74008413513064" lon="11.224392457886525"><ele>66.5</ele><time>2026-04-03T13:06:54Z</time></trkpt><trkpt lat="43.73999162294069" lon="11.224406067655291"><ele>66.0</ele><time>2026-04-03T13:06:55Z</time></trkpt><trkpt lat="43.73989457485504" lon="11.22439784161309"><ele>65.5</ele><time>2026-04-03T13:06:56Z</time></trkpt><trkpt lat="43.739815574505535" lon="11.224395335560034"><ele>65.0</ele><time>2026-04-03T13:06:57Z</time></trkpt><trkpt lat="43.73973924855593" lon="11.224392636345325"><ele>64.5</ele><time>2026-04-03T13:06:58Z</time></trkpt><trkpt lat="43.73965174801509" lon="11.224388601005996"><ele>64.0</ele><time>2026-04-03T13:06:59Z</time></trkpt><trkpt lat="43.739572757799756" lon="11.22438778114912"><ele>63.99999999999999</ele><time>2026-04-03T13:07:00Z</time></trkpt><trkpt lat="43.7394974360495" lon="11.224393842872933"><ele>64.0</ele><time>2026-04-03T13:07:01Z</time></trkpt><trkpt lat="43.7394286230616" lon="11.22439254614041"><ele>64.0</ele><time>2026-04-03T13:07:02Z</time></trkpt><trkpt lat="43.73936112172452" lon="11.224393467436169"><ele>64.0</ele><time>2026-04-03T13:07:03Z</time></trkpt><trkpt lat="43.739286366653324" lon="11.224398180525645"><ele>63.99999999999999</ele><time>2026-04-03T13:07:04Z</time></trkpt><trkpt lat="43.739206149319656" lon="11.224406833178517"><ele>64.0</ele><time>2026-04-03T13:07:05Z</time></trkpt><trkpt lat="43.739118738074936" lon="11.224423725574358"><ele>63.83333333333333</ele><time>2026-04-03T13:07:06Z</time></trkpt><trkpt lat="43.73902412163603" lon="11.224425750447677"><ele>63.666666666666664</ele><time>2026-04-03T13:07:07Z</time></trkpt><trkpt lat="43.73894219520858" lon="11.224443108362538"><ele>63.5</ele><time>2026-04-03T13:07:08Z</time></trkpt><trkpt lat="43.738852597439504" lon="11.224455629603712"><ele>63.33333333333333</ele><time>2026-04-03T13:07:09Z</time></trkpt><trkpt lat="43.73876356560513" lon="11.224466042293274"><ele>63.166666666666664</ele><time>2026-04-03T13:07:10Z</time></trkpt><trkpt lat="43.73867564995769" lon="11.224485339632274"><ele>63.0</ele><time>2026-04-03T13:07:11Z</time></trkpt><trkpt lat="43.738585601342415" lon="11.224503253750456"><ele>63.166666666666664</ele><time>2026-04-03T13:07:12Z</time></trkpt><trkpt lat="43.73850293098355" lon="11.224513546487364"><ele>63.33333333333333</ele><time>2026-04-03T13:07:13Z</time></trkpt><trkpt lat="43.73842296353135" lon="11.224524478042838"><ele>63.5</ele><time>2026-04-03T13:07:14Z</time></trkpt><trkpt lat="43.73834608396761" lon="11.22454693287276"><ele>63.666666666666664</ele><time>2026-04-03T13:07:15Z</time></trkpt><trkpt lat="43.73825968648624" lon="11.224553586937015"><ele>63.83333333333333</ele><time>2026-04-03T13:07:16Z</time></trkpt><trkpt lat="43.73816223428774" lon="11.224550965105864"><ele>64.0</ele><time>2026-04-03T13:07:17Z</time></trkpt><trkpt lat="43.73808036826572" lon="11.22457566443889"><ele>64.0</ele><time>2026-04-03T13:07:18Z</time></trkpt><trkpt lat="43.73799459246291" lon="11.224581871294394"><ele>64.0</ele><time>2026-04-03T13:07:19Z</time></trkpt><trkpt lat="43.73784456949696" lon="11.224593314755655"><ele>64.0</ele><time>2026-04-03T13:07:21Z</time></trkpt><trkpt lat="43.737771398886736" lon="11.224596004945157"><ele>64.0</ele><time>2026-04-03T13:07:22Z</time></trkpt><trkpt lat="43.73767247679885" lon="11.224622598558692"><ele>64.0</ele><time>2026-04-03T13:07:24Z</time></trkpt><trkpt lat="43.737605729705756" lon="11.22463038805947"><ele>63.83333333333333</ele><time>2026-04-03T13:07:26Z</time></trkpt><trkpt lat="43.737524776342774" lon="11.224655157928673"><ele>63.666666666666664</ele><time>2026-04-03T13:07:28Z</time></trkpt><trkpt lat="43.7374220648215" lon="11.224624405139064"><ele>63.5</ele><time>2026-04-03T13:07:30Z</time></trkpt><trkpt lat="43.73736567029079" lon="11.224570790545062"><ele>63.33333333333333</ele><time>2026-04-03T13:07:31Z</time></trkpt><trkpt lat="43.73729320192033" lon="11.224494645910896"><ele>63.166666666666664</ele><time>2026-04-03T13:07:32Z</time></trkpt><trkpt lat="43.737223804039374" lon="11.224411758278038"><ele>63.0</ele><time>2026-04-03T13:07:33Z</time></trkpt><trkpt lat="43.73713505302773" lon="11.224328984590516"><ele>63.0</ele><time>2026-04-03T13:07:34Z</time></trkpt><trkpt lat="43.737048306254884" lon="11.224254443055028"><ele>63.0</ele><time>2026-04-03T13:07:35Z</time></trkpt><trkpt lat="43.73697679210682" lon="11.224179043307085"><ele>63.0</ele><time>2026-04-03T13:07:36Z</time></trkpt><trkpt lat="43.73689172960567" lon="11.224114164539534"><ele>63.0</ele><time>2026-04-03T13:07:37Z</time></trkpt><trkpt lat="43.736814343402735" lon="11.224034400764841"><ele>63.0</ele><time>2026-04-03T13:07:38Z</time></trkpt><trkpt lat="43.7367455877409" lon="11.223968426140917"><ele>63.0</ele><time>2026-04-03T13:07:39Z</time></trkpt><trkpt lat="43.73668244625892" lon="11.223908454873373"><ele>63.0</ele><time>2026-04-03T13:07:40Z</time></trkpt><trkpt lat="43.7366299042668" lon="11.223849552196674"><ele>63.0</ele><time>2026-04-03T13:07:41Z</time></trkpt><trkpt lat="43.73656354934292" lon="11.223769287657559"><ele>63.0</ele><time>2026-04-03T13:07:42Z</time></trkpt><trkpt lat="43.73647927865009" lon="11.223689140881213"><ele>63.0</ele><time>2026-04-03T13:07:43Z</time></trkpt><trkpt lat="43.73637663002499" lon="11.223602704498909"><ele>63.0</ele><time>2026-04-03T13:07:44Z</time></trkpt><trkpt lat="43.73626625625126" lon="11.223506474114258"><ele>63.0</ele><time>2026-04-03T13:07:45Z</time></trkpt><trkpt lat="43.73616474389899" lon="11.223417945590736"><ele>63.0</ele><time>2026-04-03T13:07:46Z</time></trkpt><trkpt lat="43.73605218397771" lon="11.223305325751163"><ele>63.0</ele><time>2026-04-03T13:07:47Z</time></trkpt><trkpt lat="43.73593774667256" lon="11.223195903240164"><ele>62.66666666666667</ele><time>2026-04-03T13:07:48Z</time></trkpt><trkpt lat="43.73581137024491" lon="11.223079028894878"><ele>62.333333333333336</ele><time>2026-04-03T13:07:49Z</time></trkpt><trkpt lat="43.735688179896336" lon="11.222959170846307"><ele>62.0</ele><time>2026-04-03T13:07:50Z</time></trkpt><trkpt lat="43.735566382887335" lon="11.22284475476911"><ele>62.0</ele><time>2026-04-03T13:07:51Z</time></trkpt><trkpt lat="43.73542890253" lon="11.222725955659183"><ele>62.0</ele><time>2026-04-03T13:07:52Z</time></trkpt><trkpt lat="43.73528570620182" lon="11.222592271848894"><ele>62.0</ele><time>2026-04-03T13:07:53Z</time></trkpt><trkpt lat="43.73514640855749" lon="11.222454736413091"><ele>61.75</ele><time>2026-04-03T13:07:54Z</time></trkpt><trkpt lat="43.735019306101165" lon="11.222332826468644"><ele>61.5</ele><time>2026-04-03T13:07:55Z</time></trkpt><trkpt lat="43.73490472780032" lon="11.222205622509476"><ele>61.25</ele><time>2026-04-03T13:07:56Z</time></trkpt><trkpt lat="43.73481117010655" lon="11.222090694097659"><ele>61.0</ele><time>2026-04-03T13:07:57Z</time></trkpt><trkpt lat="43.73473687649227" lon="11.221975590121753"><ele>61.0</ele><time>2026-04-03T13:07:58Z</time></trkpt><trkpt lat="43.73467396161194" lon="11.221874035676"><ele>61.0</ele><time>2026-04-03T13:07:59Z</time></trkpt><trkpt lat="43.734633467510136" lon="11.221784597432908"><ele>61.0</ele><time>2026-04-03T13:08:00Z</time></trkpt><trkpt lat="43.73464141994925" lon="11.221693799667591"><ele>61.0</ele><time>2026-04-03T13:08:01Z</time></trkpt><trkpt lat="43.73442283255969" lon="11.221820053913271"><ele>60.25</ele><time>2026-04-03T13:08:02Z</time></trkpt><trkpt lat="43.73431447685044" lon="11.22190201753903"><ele>59.5</ele><time>2026-04-03T13:08:03Z</time></trkpt><trkpt lat="43.73419985671651" lon="11.22202007075907"><ele>58.75</ele><time>2026-04-03T13:08:04Z</time></trkpt><trkpt lat="43.73407730596528" lon="11.222142408975632"><ele>58.0</ele><time>2026-04-03T13:08:05Z</time></trkpt><trkpt lat="43.733961022784705" lon="11.222252354672985"><ele>58.0</ele><time>2026-04-03T13:08:06Z</time></trkpt><trkpt lat="43.73383503516854" lon="11.222364600727854"><ele>58.0</ele><time>2026-04-03T13:08:07Z</time></trkpt><trkpt lat="43.73371535753041" lon="11.222470130012718"><ele>58.0</ele><time>2026-04-03T13:08:08Z</time></trkpt><trkpt lat="43.73361259979511" lon="11.222558463052083"><ele>58.0</ele><time>2026-04-03T13:08:09Z</time></trkpt><trkpt lat="43.733519972103686" lon="11.222637308042536"><ele>58.25</ele><time>2026-04-03T13:08:10Z</time></trkpt><trkpt lat="43.733437870532086" lon="11.22271235519096"><ele>58.5</ele><time>2026-04-03T13:08:11Z</time></trkpt><trkpt lat="43.7333484798859" lon="11.222756679094408"><ele>58.75</ele><time>2026-04-03T13:08:12Z</time></trkpt><trkpt lat="43.733172303385686" lon="11.222892357675725"><ele>59.0</ele><time>2026-04-03T13:08:14Z</time></trkpt><trkpt lat="43.73308295323787" lon="11.222983556170803"><ele>59.0</ele><time>2026-04-03T13:08:15Z</time></trkpt><trkpt lat="43.73298944095395" lon="11.22305536669705"><ele>59.0</ele><time>2026-04-03T13:08:16Z</time></trkpt><trkpt lat="43.732895288390324" lon="11.223124280406319"><ele>59.0</ele><time>2026-04-03T13:08:17Z</time></trkpt><trkpt lat="43.73281147667744" lon="11.223237324326172"><ele>59.0</ele><time>2026-04-03T13:08:18Z</time></trkpt><trkpt lat="43.732726278800016" lon="11.223370251718581"><ele>60.75</ele><time>2026-04-03T13:08:19Z</time></trkpt><trkpt lat="43.73263364749705" lon="11.223528374501393"><ele>62.5</ele><time>2026-04-03T13:08:20Z</time></trkpt><trkpt lat="43.7325400528653" lon="11.22368994117407"><ele>64.25</ele><time>2026-04-03T13:08:21Z</time></trkpt><trkpt lat="43.732456881698646" lon="11.223833610838563"><ele>66.0</ele><time>2026-04-03T13:08:22Z</time></trkpt><trkpt lat="43.7323917312299" lon="11.223958240141656"><ele>66.0</ele><time>2026-04-03T13:08:23Z</time></trkpt><trkpt lat="43.73233136408535" lon="11.22407329172774"><ele>66.0</ele><time>2026-04-03T13:08:24Z</time></trkpt><trkpt lat="43.73226615628426" lon="11.22418096886295"><ele>66.0</ele><time>2026-04-03T13:08:25Z</time></trkpt><trkpt lat="43.73218452517204" lon="11.224257837016506"><ele>66.0</ele><time>2026-04-03T13:08:26Z</time></trkpt><trkpt lat="43.73208561791592" lon="11.224277920563088"><ele>66.0</ele><time>2026-04-03T13:08:27Z</time></trkpt><trkpt lat="43.73198978035932" lon="11.224204107785699"><ele>66.0</ele><time>2026-04-03T13:08:28Z</time></trkpt><trkpt lat="43.73189800432471" lon="11.224103423388003"><ele>66.0</ele><time>2026-04-03T13:08:29Z</time></trkpt><trkpt lat="43.73180395797203" lon="11.223969338781776"><ele>66.0</ele><time>2026-04-03T13:08:30Z</time></trkpt><trkpt lat="43.73169317998669" lon="11.223850540639939"><ele>66.0</ele><time>2026-04-03T13:08:31Z</time></trkpt><trkpt lat="43.731564925132886" lon="11.223753845741113"><ele>71.0</ele><time>2026-04-03T13:08:32Z</time></trkpt><trkpt lat="43.73125158025191" lon="11.223602042197683"><ele>76.0</ele><time>2026-04-03T13:08:34Z</time></trkpt><trkpt lat="43.731071512076355" lon="11.22354616941651"><ele>77.66666666666666</ele><time>2026-04-03T13:08:35Z</time></trkpt><trkpt lat="43.73089893234188" lon="11.223496646533137"><ele>79.33333333333333</ele><time>2026-04-03T13:08:36Z</time></trkpt><trkpt lat="43.7307232825025" lon="11.223457362158952"><ele>81.0</ele><time>2026-04-03T13:08:37Z</time></trkpt><trkpt lat="43.73054739341527" lon="11.223426785304257"><ele>81.0</ele><time>2026-04-03T13:08:38Z</time></trkpt><trkpt lat="43.73036834135342" lon="11.223390572431567"><ele>81.0</ele><time>2026-04-03T13:08:39Z</time></trkpt><trkpt lat="43.73020836167548" lon="11.223347355947007"><ele>81.0</ele><time>2026-04-03T13:08:40Z</time></trkpt><trkpt lat="43.730069117778385" lon="11.22330677672184"><ele>81.0</ele><time>2026-04-03T13:08:41Z</time></trkpt><trkpt lat="43.72991900096602" lon="11.223277858028467"><ele>81.0</ele><time>2026-04-03T13:08:42Z</time></trkpt><trkpt lat="43.72976044082293" lon="11.223245300594476"><ele>81.0</ele><time>2026-04-03T13:08:43Z</time></trkpt><trkpt lat="43.729590056732334" lon="11.223221641594142"><ele>81.0</ele><time>2026-04-03T13:08:44Z</time></trkpt><trkpt lat="43.72941330975093" lon="11.223219251413399"><ele>81.0</ele><time>2026-04-03T13:08:45Z</time></trkpt><trkpt lat="43.72923564174228" lon="11.223235290089992"><ele>81.0</ele><time>2026-04-03T13:08:46Z</time></trkpt><trkpt lat="43.72905698154207" lon="11.22328244619601"><ele>79.0</ele><time>2026-04-03T13:08:47Z</time></trkpt><trkpt lat="43.728886929181115" lon="11.223355933920315"><ele>77.0</ele><time>2026-04-03T13:08:48Z</time></trkpt><trkpt lat="43.72871465168027" lon="11.22344937369833"><ele>75.0</ele><time>2026-04-03T13:08:49Z</time></trkpt><trkpt lat="43.728551183472995" lon="11.223550006321616"><ele>73.66666666666667</ele><time>2026-04-03T13:08:50Z</time></trkpt><trkpt lat="43.728390505283144" lon="11.223645636810183"><ele>72.33333333333334</ele><time>2026-04-03T13:08:51Z</time></trkpt><trkpt lat="43.72823950161388" lon="11.22372655789098"><ele>71.0</ele><time>2026-04-03T13:08:52Z</time></trkpt><trkpt lat="43.728101456671936" lon="11.223807406441813"><ele>71.0</ele><time>2026-04-03T13:08:53Z</time></trkpt><trkpt lat="43.727963469156684" lon="11.223880868297229"><ele>71.0</ele><time>2026-04-03T13:08:54Z</time></trkpt><trkpt lat="43.72783783824165" lon="11.223949711428556"><ele>71.0</ele><time>2026-04-03T13:08:55Z</time></trkpt><trkpt lat="43.7277131502026" lon="11.224021551336824"><ele>71.0</ele><time>2026-04-03T13:08:56Z</time></trkpt><trkpt lat="43.72757868408965" lon="11.224103267876012"><ele>69.33333333333334</ele><time>2026-04-03T13:08:57Z</time></trkpt><trkpt lat="43.72742321614362" lon="11.224194373743785"><ele>67.66666666666667</ele><time>2026-04-03T13:08:58Z</time></trkpt><trkpt lat="43.727252415454224" lon="11.224284862935914"><ele>66.0</ele><time>2026-04-03T13:08:59Z</time></trkpt><trkpt lat="43.727084595540695" lon="11.22436349004088"><ele>66.0</ele><time>2026-04-03T13:09:00Z</time></trkpt><trkpt lat="43.726916608964316" lon="11.224435043781652"><ele>66.0</ele><time>2026-04-03T13:09:01Z</time></trkpt><trkpt lat="43.72674028412276" lon="11.224499882863782"><ele>66.0</ele><time>2026-04-03T13:09:02Z</time></trkpt><trkpt lat="43.726577971035155" lon="11.224561375888308"><ele>65.0</ele><time>2026-04-03T13:09:03Z</time></trkpt><trkpt lat="43.726397432757054" lon="11.224640239923763"><ele>64.0</ele><time>2026-04-03T13:09:04Z</time></trkpt><trkpt lat="43.72622588011733" lon="11.224708699240875"><ele>63.0</ele><time>2026-04-03T13:09:05Z</time></trkpt><trkpt lat="43.72606210754337" lon="11.224770079813888"><ele>63.0</ele><time>2026-04-03T13:09:06Z</time></trkpt><trkpt lat="43.72591380485033" lon="11.224822350528074"><ele>63.0</ele><time>2026-04-03T13:09:07Z</time></trkpt><trkpt lat="43.72577089768598" lon="11.22486686007939"><ele>63.0</ele><time>2026-04-03T13:09:08Z</time></trkpt><trkpt lat="43.72562711136441" lon="11.224912130062819"><ele>63.0</ele><time>2026-04-03T13:09:09Z</time></trkpt><trkpt lat="43.72547652733473" lon="11.224964760038254"><ele>63.0</ele><time>2026-04-03T13:09:10Z</time></trkpt><trkpt lat="43.725321489102235" lon="11.225005289586905"><ele>63.0</ele><time>2026-04-03T13:09:11Z</time></trkpt><trkpt lat="43.725164425005154" lon="11.225037012048155"><ele>63.0</ele><time>2026-04-03T13:09:12Z</time></trkpt><trkpt lat="43.72502281273786" lon="11.225043643619792"><ele>63.75</ele><time>2026-04-03T13:09:13Z</time></trkpt><trkpt lat="43.72488971429395" lon="11.225061113382138"><ele>64.5</ele><time>2026-04-03T13:09:14Z</time></trkpt><trkpt lat="43.7247712506725" lon="11.225068586523323"><ele>65.25</ele><time>2026-04-03T13:09:15Z</time></trkpt><trkpt lat="43.724656028210376" lon="11.22508196601474"><ele>66.0</ele><time>2026-04-03T13:09:16Z</time></trkpt><trkpt lat="43.724552700589854" lon="11.225095262368336"><ele>66.0</ele><time>2026-04-03T13:09:17Z</time></trkpt><trkpt lat="43.72445871659258" lon="11.225101986122903"><ele>66.0</ele><time>2026-04-03T13:09:18Z</time></trkpt><trkpt lat="43.72436494438708" lon="11.225108001829414"><ele>66.0</ele><time>2026-04-03T13:09:19Z</time></trkpt><trkpt lat="43.72427125210878" lon="11.225106757053137"><ele>66.0</ele><time>2026-04-03T13:09:20Z</time></trkpt><trkpt lat="43.72419094266429" lon="11.225112430679193"><ele>66.0</ele><time>2026-04-03T13:09:21Z</time></trkpt><trkpt lat="43.72411648223856" lon="11.22511716087585"><ele>66.0</ele><time>2026-04-03T13:09:22Z</time></trkpt><trkpt lat="43.72400625475939" lon="11.225133977190755"><ele>66.0</ele><time>2026-04-03T13:09:24Z</time></trkpt><trkpt lat="43.72393524646063" lon="11.22513967094713"><ele>66.0</ele><time>2026-04-03T13:09:26Z</time></trkpt><trkpt lat="43.7238172136735" lon="11.225159122528893"><ele>66.0</ele><time>2026-04-03T13:10:02Z</time></trkpt><trkpt lat="43.72373229830102" lon="11.225169184733524"><ele>66.0</ele><time>2026-04-03T13:10:03Z</time></trkpt><trkpt lat="43.72364881609493" lon="11.225178741323292"><ele>66.0</ele><time>2026-04-03T13:10:04Z</time></trkpt><trkpt lat="43.72355125030201" lon="11.225193160933381"><ele>66.0</ele><time>2026-04-03T13:10:05Z</time></trkpt><trkpt lat="43.72343666542365" lon="11.225187037123538"><ele>66.0</ele><time>2026-04-03T13:10:06Z</time></trkpt><trkpt lat="43.723314790634184" lon="11.225166397015112"><ele>66.0</ele><time>2026-04-03T13:10:07Z</time></trkpt><trkpt lat="43.72319657092248" lon="11.225128243081189"><ele>66.0</ele><time>2026-04-03T13:10:08Z</time></trkpt><trkpt lat="43.72306058486746" lon="11.225075956000813"><ele>66.0</ele><time>2026-04-03T13:10:09Z</time></trkpt><trkpt lat="43.722913036657765" lon="11.22502238942677"><ele>66.0</ele><time>2026-04-03T13:10:10Z</time></trkpt><trkpt lat="43.722769855514" lon="11.224968472436942"><ele>66.0</ele><time>2026-04-03T13:10:11Z</time></trkpt><trkpt lat="43.7226278436865" lon="11.224897093444776"><ele>66.0</ele><time>2026-04-03T13:10:12Z</time></trkpt><trkpt lat="43.72246186646881" lon="11.224834132920988"><ele>66.0</ele><time>2026-04-03T13:10:13Z</time></trkpt><trkpt lat="43.72231367003248" lon="11.224771113671727"><ele>66.0</ele><time>2026-04-03T13:10:14Z</time></trkpt><trkpt lat="43.72213477968781" lon="11.22472534624552"><ele>66.0</ele><time>2026-04-03T13:10:15Z</time></trkpt><trkpt lat="43.721964020390246" lon="11.224646559231024"><ele>66.0</ele><time>2026-04-03T13:10:16Z</time></trkpt><trkpt lat="43.721793868869966" lon="11.22453725401182"><ele>66.0</ele><time>2026-04-03T13:10:17Z</time></trkpt><trkpt lat="43.72162832773085" lon="11.224411685125276"><ele>66.33333333333333</ele><time>2026-04-03T13:10:18Z</time></trkpt><trkpt lat="43.72147157250052" lon="11.224286385275255"><ele>66.66666666666666</ele><time>2026-04-03T13:10:19Z</time></trkpt><trkpt lat="43.7213239768838" lon="11.224170819207997"><ele>67.0</ele><time>2026-04-03T13:10:20Z</time></trkpt><trkpt lat="43.721183701832544" lon="11.224060736601071"><ele>67.0</ele><time>2026-04-03T13:10:21Z</time></trkpt><trkpt lat="43.72104207240094" lon="11.22393028734888"><ele>67.0</ele><time>2026-04-03T13:10:22Z</time></trkpt><trkpt lat="43.720900208846814" lon="11.223850664615183"><ele>67.0</ele><time>2026-04-03T13:10:23Z</time></trkpt><trkpt lat="43.720789099042214" lon="11.22376539115843"><ele>67.0</ele><time>2026-04-03T13:10:24Z</time></trkpt><trkpt lat="43.72068941238643" lon="11.223693806555398"><ele>67.0</ele><time>2026-04-03T13:10:25Z</time></trkpt><trkpt lat="43.72060333718434" lon="11.223629182599044"><ele>67.0</ele><time>2026-04-03T13:10:26Z</time></trkpt><trkpt lat="43.72052712545305" lon="11.22356052690443"><ele>67.0</ele><time>2026-04-03T13:10:27Z</time></trkpt><trkpt lat="43.720459435680034" lon="11.223486186218894"><ele>67.0</ele><time>2026-04-03T13:10:28Z</time></trkpt><trkpt lat="43.72041107381589" lon="11.223363994650636"><ele>67.0</ele><time>2026-04-03T13:10:29Z</time></trkpt><trkpt lat="43.720347749869674" lon="11.223243979006936"><ele>67.0</ele><time>2026-04-03T13:10:30Z</time></trkpt><trkpt lat="43.720304188906624" lon="11.223102446917606"><ele>67.0</ele><time>2026-04-03T13:10:31Z</time></trkpt><trkpt lat="43.72024589504669" lon="11.22297786437172"><ele>67.0</ele><time>2026-04-03T13:10:32Z</time></trkpt><trkpt lat="43.720164975568665" lon="11.222888641551178"><ele>67.0</ele><time>2026-04-03T13:10:33Z</time></trkpt><trkpt lat="43.72006583498451" lon="11.222855557600582"><ele>67.16666666666666</ele><time>2026-04-03T13:10:34Z</time></trkpt><trkpt lat="43.719981712143564" lon="11.222867569290624"><ele>67.33333333333333</ele><time>2026-04-03T13:10:35Z</time></trkpt><trkpt lat="43.71991935421995" lon="11.222896115958322"><ele>67.5</ele><time>2026-04-03T13:10:36Z</time></trkpt><trkpt lat="43.71986837226238" lon="11.222962300144971"><ele>67.66666666666667</ele><time>2026-04-03T13:10:39Z</time></trkpt><trkpt lat="43.71979559754286" lon="11.223022495653126"><ele>67.83333333333334</ele><time>2026-04-03T13:10:43Z</time></trkpt><trkpt lat="43.71972117454925" lon="11.223085086475898"><ele>68.0</ele><time>2026-04-03T13:10:44Z</time></trkpt><trkpt lat="43.71963285357734" lon="11.223153291573631"><ele>68.0</ele><time>2026-04-03T13:10:45Z</time></trkpt><trkpt lat="43.7195168967167" lon="11.223210208718134"><ele>68.0</ele><time>2026-04-03T13:10:46Z</time></trkpt><trkpt lat="43.71939597327948" lon="11.223237866618902"><ele>68.0</ele><time>2026-04-03T13:10:47Z</time></trkpt><trkpt lat="43.71926430216155" lon="11.223190337392705"><ele>68.0</ele><time>2026-04-03T13:10:48Z</time></trkpt><trkpt lat="43.719126603258886" lon="11.223177699483042"><ele>66.66666666666667</ele><time>2026-04-03T13:10:49Z</time></trkpt><trkpt lat="43.718976524034865" lon="11.223128673559245"><ele>65.33333333333333</ele><time>2026-04-03T13:10:50Z</time></trkpt><trkpt lat="43.718824933785555" lon="11.22309859789381"><ele>64.0</ele><time>2026-04-03T13:10:51Z</time></trkpt><trkpt lat="43.71866481317751" lon="11.22304189849281"><ele>65.33333333333333</ele><time>2026-04-03T13:10:52Z</time></trkpt><trkpt lat="43.71849368892065" lon="11.222994361150574"><ele>66.66666666666667</ele><time>2026-04-03T13:10:53Z</time></trkpt><trkpt lat="43.71832314963697" lon="11.22293728545429"><ele>68.0</ele><time>2026-04-03T13:10:54Z</time></trkpt><trkpt lat="43.7181405581001" lon="11.222863981560836"><ele>68.0</ele><time>2026-04-03T13:10:55Z</time></trkpt><trkpt lat="43.71794865147045" lon="11.222807869822995"><ele>68.0</ele><time>2026-04-03T13:10:56Z</time></trkpt><trkpt lat="43.7177643416051" lon="11.222723260046376"><ele>68.0</ele><time>2026-04-03T13:10:57Z</time></trkpt><trkpt lat="43.71757285114523" lon="11.222651739064833"><ele>68.0</ele><time>2026-04-03T13:10:58Z</time></trkpt><trkpt lat="43.717399029883154" lon="11.222583331720925"><ele>68.0</ele><time>2026-04-03T13:10:59Z</time></trkpt><trkpt lat="43.71721828785456" lon="11.222522672714701"><ele>68.0</ele><time>2026-04-03T13:11:00Z</time></trkpt><trkpt lat="43.71703904732472" lon="11.22246418819144"><ele>68.0</ele><time>2026-04-03T13:11:01Z</time></trkpt><trkpt lat="43.71687320114594" lon="11.222384475812659"><ele>68.0</ele><time>2026-04-03T13:11:02Z</time></trkpt><trkpt lat="43.71671060054364" lon="11.22233495184679"><ele>68.0</ele><time>2026-04-03T13:11:03Z</time></trkpt><trkpt lat="43.71655593441172" lon="11.222255078851527"><ele>68.0</ele><time>2026-04-03T13:11:04Z</time></trkpt><trkpt lat="43.71641937631725" lon="11.22212943078188"><ele>68.0</ele><time>2026-04-03T13:11:05Z</time></trkpt><trkpt lat="43.71626627064061" lon="11.222027588268196"><ele>68.0</ele><time>2026-04-03T13:11:06Z</time></trkpt><trkpt lat="43.71611194386983" lon="11.221970529315241"><ele>67.66666666666667</ele><time>2026-04-03T13:11:07Z</time></trkpt><trkpt lat="43.715952984532784" lon="11.221918181638786"><ele>67.33333333333333</ele><time>2026-04-03T13:11:08Z</time></trkpt><trkpt lat="43.7158083909779" lon="11.221885034389638"><ele>67.0</ele><time>2026-04-03T13:11:09Z</time></trkpt><trkpt lat="43.7156643278827" lon="11.221867566379053"><ele>67.0</ele><time>2026-04-03T13:11:10Z</time></trkpt><trkpt lat="43.71551055220964" lon="11.22184160359234"><ele>67.0</ele><time>2026-04-03T13:11:11Z</time></trkpt><trkpt lat="43.71536186502572" lon="11.22180146144106"><ele>67.0</ele><time>2026-04-03T13:11:12Z</time></trkpt><trkpt lat="43.71522695921525" lon="11.22173076474519"><ele>67.25</ele><time>2026-04-03T13:11:13Z</time></trkpt><trkpt lat="43.71512052862305" lon="11.221608943169434"><ele>67.5</ele><time>2026-04-03T13:11:14Z</time></trkpt><trkpt lat="43.71501015137764" lon="11.221516970656129"><ele>67.75</ele><time>2026-04-03T13:11:15Z</time></trkpt><trkpt lat="43.71489768595914" lon="11.22142645869812"><ele>68.0</ele><time>2026-04-03T13:11:16Z</time></trkpt><trkpt lat="43.71476890442138" lon="11.2213699014332"><ele>68.0</ele><time>2026-04-03T13:11:17Z</time></trkpt><trkpt lat="43.714633825255596" lon="11.221309872284667"><ele>68.0</ele><time>2026-04-03T13:11:18Z</time></trkpt><trkpt lat="43.71449342758718" lon="11.221274549589896"><ele>68.0</ele><time>2026-04-03T13:11:19Z</time></trkpt><trkpt lat="43.714357213956205" lon="11.221239412883484"><ele>68.0</ele><time>2026-04-03T13:11:20Z</time></trkpt><trkpt lat="43.71422262806069" lon="11.221202984316164"><ele>69.0</ele><time>2026-04-03T13:11:21Z</time></trkpt><trkpt lat="43.71408906155892" lon="11.221165959354966"><ele>70.0</ele><time>2026-04-03T13:11:22Z</time></trkpt><trkpt lat="43.71395663327335" lon="11.221119469631743"><ele>71.0</ele><time>2026-04-03T13:11:23Z</time></trkpt><trkpt lat="43.71383193251474" lon="11.221015680934219"><ele>72.0</ele><time>2026-04-03T13:11:24Z</time></trkpt><trkpt lat="43.713702065370455" lon="11.220895752317425"><ele>72.0</ele><time>2026-04-03T13:11:25Z</time></trkpt><trkpt lat="43.713572809228964" lon="11.220773523095488"><ele>72.0</ele><time>2026-04-03T13:11:26Z</time></trkpt><trkpt lat="43.71344821058441" lon="11.220655698329395"><ele>72.0</ele><time>2026-04-03T13:11:27Z</time></trkpt><trkpt lat="43.71333176983273" lon="11.220551969431524"><ele>72.0</ele><time>2026-04-03T13:11:28Z</time></trkpt><trkpt lat="43.71321896098338" lon="11.22045983841741"><ele>71.75</ele><time>2026-04-03T13:11:29Z</time></trkpt><trkpt lat="43.71311695845768" lon="11.22036461852916"><ele>71.5</ele><time>2026-04-03T13:11:30Z</time></trkpt><trkpt lat="43.71302533158495" lon="11.220270294603438"><ele>71.25</ele><time>2026-04-03T13:11:31Z</time></trkpt><trkpt lat="43.71294082577099" lon="11.22018155595198"><ele>71.0</ele><time>2026-04-03T13:11:32Z</time></trkpt><trkpt lat="43.71285156971135" lon="11.220089230856955"><ele>71.0</ele><time>2026-04-03T13:11:33Z</time></trkpt><trkpt lat="43.7127551899553" lon="11.21999269321784"><ele>71.0</ele><time>2026-04-03T13:11:34Z</time></trkpt><trkpt lat="43.71266489864874" lon="11.21990702151555"><ele>71.0</ele><time>2026-04-03T13:11:35Z</time></trkpt><trkpt lat="43.71257601916635" lon="11.219823165063058"><ele>71.0</ele><time>2026-04-03T13:11:36Z</time></trkpt><trkpt lat="43.71249126281613" lon="11.219741768618132"><ele>71.0</ele><time>2026-04-03T13:11:37Z</time></trkpt><trkpt lat="43.712409749091066" lon="11.21965476303247"><ele>71.25</ele><time>2026-04-03T13:11:38Z</time></trkpt><trkpt lat="43.71232869077761" lon="11.219560619566906"><ele>71.5</ele><time>2026-04-03T13:11:39Z</time></trkpt><trkpt lat="43.71224338007585" lon="11.219460397981875"><ele>71.75</ele><time>2026-04-03T13:11:40Z</time></trkpt><trkpt lat="43.71215849631137" lon="11.219354737120465"><ele>72.0</ele><time>2026-04-03T13:11:41Z</time></trkpt><trkpt lat="43.71205536508586" lon="11.219234555495916"><ele>72.0</ele><time>2026-04-03T13:11:42Z</time></trkpt><trkpt lat="43.71195421826151" lon="11.219077617483348"><ele>72.0</ele><time>2026-04-03T13:11:43Z</time></trkpt><trkpt lat="43.71183677331018" lon="11.218928998303412"><ele>72.0</ele><time>2026-04-03T13:11:44Z</time></trkpt><trkpt lat="43.711726327718615" lon="11.218784343026465"><ele>72.0</ele><time>2026-04-03T13:11:45Z</time></trkpt><trkpt lat="43.71162014207522" lon="11.21863625369764"><ele>72.0</ele><time>2026-04-03T13:11:46Z</time></trkpt><trkpt lat="43.71151771163909" lon="11.218488819415354"><ele>72.0</ele><time>2026-04-03T13:11:47Z</time></trkpt><trkpt lat="43.71142148714383" lon="11.218349537795097"><ele>72.0</ele><time>2026-04-03T13:11:48Z</time></trkpt><trkpt lat="43.71134240737518" lon="11.218231695044036"><ele>72.0</ele><time>2026-04-03T13:11:49Z</time></trkpt><trkpt lat="43.71127276893147" lon="11.21811899196587"><ele>72.0</ele><time>2026-04-03T13:11:50Z</time></trkpt><trkpt lat="43.71120255831424" lon="11.2180203616446"><ele>72.0</ele><time>2026-04-03T13:11:51Z</time></trkpt><trkpt lat="43.711132877138816" lon="11.217923958405965"><ele>72.0</ele><time>2026-04-03T13:11:52Z</time></trkpt><trkpt lat="43.711071765400725" lon="11.217830969955473"><ele>72.0</ele><time>2026-04-03T13:11:53Z</time></trkpt><trkpt lat="43.711009050990555" lon="11.217740862409569"><ele>72.0</ele><time>2026-04-03T13:11:54Z</time></trkpt><trkpt lat="43.71095298363852" lon="11.217654007204565"><ele>72.0</ele><time>2026-04-03T13:11:55Z</time></trkpt><trkpt lat="43.710893058714134" lon="11.21757103636781"><ele>72.0</ele><time>2026-04-03T13:11:56Z</time></trkpt><trkpt lat="43.71083794638051" lon="11.217486358825097"><ele>72.0</ele><time>2026-04-03T13:11:57Z</time></trkpt><trkpt lat="43.710779551845114" lon="11.217407293573876"><ele>72.0</ele><time>2026-04-03T13:11:58Z</time></trkpt><trkpt lat="43.71072557582857" lon="11.217324613946094"><ele>72.0</ele><time>2026-04-03T13:11:59Z</time></trkpt><trkpt lat="43.710676955341626" lon="11.217246027286627"><ele>71.83333333333333</ele><time>2026-04-03T13:12:00Z</time></trkpt><trkpt lat="43.71064109515216" lon="11.217160252946758"><ele>71.66666666666667</ele><time>2026-04-03T13:12:01Z</time></trkpt><trkpt lat="43.710624719304576" lon="11.217074644366045"><ele>71.5</ele><time>2026-04-03T13:12:02Z</time></trkpt><trkpt lat="43.71058560086211" lon="11.217001951172014"><ele>71.33333333333334</ele><time>2026-04-03T13:12:04Z</time></trkpt><trkpt lat="43.7105553932236" lon="11.217080827181707"><ele>71.16666666666667</ele><time>2026-04-03T13:12:20Z</time></trkpt><trkpt lat="43.710611313895754" lon="11.2172501568093"><ele>71.0</ele><time>2026-04-03T13:12:23Z</time></trkpt><trkpt lat="43.71067785356093" lon="11.21731479739714"><ele>71.16666666666667</ele><time>2026-04-03T13:12:24Z</time></trkpt><trkpt lat="43.71072640401695" lon="11.217377027618546"><ele>71.33333333333334</ele><time>2026-04-03T13:12:25Z</time></trkpt><trkpt lat="43.710785269618015" lon="11.217465527777234"><ele>71.5</ele><time>2026-04-03T13:12:26Z</time></trkpt><trkpt lat="43.71085310970637" lon="11.21756510607438"><ele>71.66666666666667</ele><time>2026-04-03T13:12:27Z</time></trkpt><trkpt lat="43.71092648897187" lon="11.217664066889192"><ele>71.83333333333333</ele><time>2026-04-03T13:12:28Z</time></trkpt><trkpt lat="43.71098784457368" lon="11.217750708077505"><ele>72.0</ele><time>2026-04-03T13:12:29Z</time></trkpt><trkpt lat="43.71105619991199" lon="11.217848410358963"><ele>72.0</ele><time>2026-04-03T13:12:30Z</time></trkpt><trkpt lat="43.711128378541545" lon="11.217965293669446"><ele>72.0</ele><time>2026-04-03T13:12:31Z</time></trkpt><trkpt lat="43.71121385673661" lon="11.218070481416241"><ele>72.0</ele><time>2026-04-03T13:12:32Z</time></trkpt><trkpt lat="43.71130289317955" lon="11.218195759942398"><ele>72.0</ele><time>2026-04-03T13:12:33Z</time></trkpt><trkpt lat="43.71139836498262" lon="11.218330589733938"><ele>72.0</ele><time>2026-04-03T13:12:34Z</time></trkpt><trkpt lat="43.71148546718012" lon="11.218469710796342"><ele>72.0</ele><time>2026-04-03T13:12:35Z</time></trkpt><trkpt lat="43.71157186351171" lon="11.218602627373675"><ele>72.0</ele><time>2026-04-03T13:12:36Z</time></trkpt><trkpt lat="43.71166710561403" lon="11.218736800881594"><ele>72.0</ele><time>2026-04-03T13:12:37Z</time></trkpt><trkpt lat="43.71175769607095" lon="11.218869840528852"><ele>72.0</ele><time>2026-04-03T13:12:38Z</time></trkpt><trkpt lat="43.71184224971802" lon="11.218988208949543"><ele>72.0</ele><time>2026-04-03T13:12:39Z</time></trkpt><trkpt lat="43.711919142366966" lon="11.219097973996847"><ele>72.0</ele><time>2026-04-03T13:12:40Z</time></trkpt><trkpt lat="43.71198609503754" lon="11.219193208563533"><ele>72.0</ele><time>2026-04-03T13:12:41Z</time></trkpt><trkpt lat="43.712040949438276" lon="11.219273510783612"><ele>72.0</ele><time>2026-04-03T13:12:42Z</time></trkpt><trkpt lat="43.71208378709486" lon="11.219357408083077"><ele>72.0</ele><time>2026-04-03T13:12:43Z</time></trkpt><trkpt lat="43.71208640109564" lon="11.219450077288304"><ele>72.0</ele><time>2026-04-03T13:12:44Z</time></trkpt><trkpt lat="43.711994602779875" lon="11.219554013919689"><ele>72.0</ele><time>2026-04-03T13:12:46Z</time></trkpt><trkpt lat="43.71191869903099" lon="11.219563338112499"><ele>72.0</ele><time>2026-04-03T13:12:47Z</time></trkpt><trkpt lat="43.71181793606498" lon="11.21957058035112"><ele>72.0</ele><time>2026-04-03T13:12:48Z</time></trkpt><trkpt lat="43.711696400149215" lon="11.219587166042949"><ele>72.25</ele><time>2026-04-03T13:12:49Z</time></trkpt><trkpt lat="43.71157223009895" lon="11.219610488214295"><ele>72.5</ele><time>2026-04-03T13:12:50Z</time></trkpt><trkpt lat="43.71145634277408" lon="11.219628362208864"><ele>72.75</ele><time>2026-04-03T13:12:51Z</time></trkpt><trkpt lat="43.711344207139476" lon="11.219644647609691"><ele>73.0</ele><time>2026-04-03T13:12:52Z</time></trkpt><trkpt lat="43.71124092949094" lon="11.219659929517661"><ele>73.0</ele><time>2026-04-03T13:12:53Z</time></trkpt><trkpt lat="43.71114346782024" lon="11.219672668156319"><ele>73.0</ele><time>2026-04-03T13:12:54Z</time></trkpt><trkpt lat="43.711057199092856" lon="11.219655322388968"><ele>73.0</ele><time>2026-04-03T13:12:55Z</time></trkpt><trkpt lat="43.71097481837365" lon="11.219616460436367"><ele>73.0</ele><time>2026-04-03T13:12:56Z</time></trkpt><trkpt lat="43.71089126415606" lon="11.219537809472184"><ele>73.0</ele><time>2026-04-03T13:12:57Z</time></trkpt><trkpt lat="43.71080599322508" lon="11.219436383357197"><ele>73.4</ele><time>2026-04-03T13:12:58Z</time></trkpt><trkpt lat="43.71071325774593" lon="11.219333061340786"><ele>73.8</ele><time>2026-04-03T13:12:59Z</time></trkpt><trkpt lat="43.71062091167687" lon="11.219230045218431"><ele>74.2</ele><time>2026-04-03T13:13:00Z</time></trkpt><trkpt lat="43.71055018728374" lon="11.219126602165293"><ele>74.6</ele><time>2026-04-03T13:13:01Z</time></trkpt><trkpt lat="43.71047931884294" lon="11.219058018434206"><ele>75.0</ele><time>2026-04-03T13:13:02Z</time></trkpt><trkpt lat="43.71041319573087" lon="11.21901254896738"><ele>75.0</ele><time>2026-04-03T13:13:03Z</time></trkpt><trkpt lat="43.710288989301354" lon="11.218969747889224"><ele>75.0</ele><time>2026-04-03T13:13:05Z</time></trkpt><trkpt lat="43.71023336832248" lon="11.218873793577702"><ele>75.0</ele><time>2026-04-03T13:13:06Z</time></trkpt><trkpt lat="43.71015280204536" lon="11.218807836556138"><ele>75.0</ele><time>2026-04-03T13:13:07Z</time></trkpt><trkpt lat="43.71006471485148" lon="11.218735722405192"><ele>75.0</ele><time>2026-04-03T13:13:08Z</time></trkpt><trkpt lat="43.709966628820865" lon="11.218655422618786"><ele>75.25</ele><time>2026-04-03T13:13:09Z</time></trkpt><trkpt lat="43.70985963689991" lon="11.218570339226451"><ele>75.5</ele><time>2026-04-03T13:13:10Z</time></trkpt><trkpt lat="43.7097482375814" lon="11.21848236387715"><ele>75.75</ele><time>2026-04-03T13:13:11Z</time></trkpt><trkpt lat="43.70964189143022" lon="11.218394880180405"><ele>76.0</ele><time>2026-04-03T13:13:12Z</time></trkpt><trkpt lat="43.70954190607951" lon="11.218311465431414"><ele>76.0</ele><time>2026-04-03T13:13:13Z</time></trkpt><trkpt lat="43.709452853279956" lon="11.218237464201557"><ele>76.0</ele><time>2026-04-03T13:13:14Z</time></trkpt><trkpt lat="43.709367665363516" lon="11.218167742549833"><ele>76.0</ele><time>2026-04-03T13:13:15Z</time></trkpt><trkpt lat="43.70927158441949" lon="11.21811925907705"><ele>76.0</ele><time>2026-04-03T13:13:16Z</time></trkpt><trkpt lat="43.70918108285978" lon="11.218053868932378"><ele>76.0</ele><time>2026-04-03T13:13:17Z</time></trkpt><trkpt lat="43.70909947843325" lon="11.217988232422647"><ele>76.39999999999999</ele><time>2026-04-03T13:13:18Z</time></trkpt><trkpt lat="43.709023637607785" lon="11.21793599285325"><ele>76.8</ele><time>2026-04-03T13:13:19Z</time></trkpt><trkpt lat="43.70894268261053" lon="11.217882869801294"><ele>77.19999999999999</ele><time>2026-04-03T13:13:20Z</time></trkpt><trkpt lat="43.70885712511032" lon="11.217825133046702"><ele>77.6</ele><time>2026-04-03T13:13:21Z</time></trkpt><trkpt lat="43.708767300291385" lon="11.21777806543473"><ele>78.0</ele><time>2026-04-03T13:13:22Z</time></trkpt><trkpt lat="43.70867672141496" lon="11.217720978923722"><ele>78.0</ele><time>2026-04-03T13:13:23Z</time></trkpt><trkpt lat="43.70857872875884" lon="11.217657119469921"><ele>78.0</ele><time>2026-04-03T13:13:24Z</time></trkpt><trkpt lat="43.70846689227647" lon="11.217593404961182"><ele>78.0</ele><time>2026-04-03T13:13:25Z</time></trkpt><trkpt lat="43.70834977235058" lon="11.217545061238422"><ele>78.0</ele><time>2026-04-03T13:13:26Z</time></trkpt><trkpt lat="43.70824145364418" lon="11.217457268056375"><ele>78.4</ele><time>2026-04-03T13:13:27Z</time></trkpt><trkpt lat="43.7081357948508" lon="11.21741168722225"><ele>78.8</ele><time>2026-04-03T13:13:28Z</time></trkpt><trkpt lat="43.70804488026209" lon="11.217343738696416"><ele>79.2</ele><time>2026-04-03T13:13:29Z</time></trkpt><trkpt lat="43.70797745416104" lon="11.217239861106718"><ele>79.6</ele><time>2026-04-03T13:13:30Z</time></trkpt><trkpt lat="43.707888103362166" lon="11.21716869211359"><ele>80.0</ele><time>2026-04-03T13:13:31Z</time></trkpt><trkpt lat="43.707804977028005" lon="11.217100422024492"><ele>84.0</ele><time>2026-04-03T13:13:32Z</time></trkpt><trkpt lat="43.707707109717354" lon="11.217051131358968"><ele>88.0</ele><time>2026-04-03T13:13:33Z</time></trkpt><trkpt lat="43.707601947660784" lon="11.216989224716103"><ele>92.0</ele><time>2026-04-03T13:13:34Z</time></trkpt><trkpt lat="43.70748870207796" lon="11.216920112883818"><ele>96.0</ele><time>2026-04-03T13:13:35Z</time></trkpt><trkpt lat="43.707377286361826" lon="11.216820794582741"><ele>96.0</ele><time>2026-04-03T13:13:36Z</time></trkpt><trkpt lat="43.707272092754536" lon="11.21680491882119"><ele>96.0</ele><time>2026-04-03T13:13:37Z</time></trkpt><trkpt lat="43.70719159536032" lon="11.216778637438212"><ele>96.0</ele><time>2026-04-03T13:13:38Z</time></trkpt><trkpt lat="43.70712251637915" lon="11.216735895722584"><ele>96.0</ele><time>2026-04-03T13:13:39Z</time></trkpt><trkpt lat="43.707033337303244" lon="11.216708322798782"><ele>96.0</ele><time>2026-04-03T13:13:40Z</time></trkpt><trkpt lat="43.706938401439416" lon="11.21668284415724"><ele>98.0</ele><time>2026-04-03T13:13:41Z</time></trkpt><trkpt lat="43.70684096218889" lon="11.216645428830523"><ele>100.0</ele><time>2026-04-03T13:13:42Z</time></trkpt><trkpt lat="43.70673704308149" lon="11.21661362281705"><ele>102.0</ele><time>2026-04-03T13:13:43Z</time></trkpt><trkpt lat="43.70662580150413" lon="11.21657516097789"><ele>104.0</ele><time>2026-04-03T13:13:44Z</time></trkpt><trkpt lat="43.70651169965792" lon="11.216530586004115"><ele>106.0</ele><time>2026-04-03T13:13:45Z</time></trkpt><trkpt lat="43.7063943936778" lon="11.216482068602168"><ele>106.0</ele><time>2026-04-03T13:13:46Z</time></trkpt><trkpt lat="43.706266507388904" lon="11.216446643506423"><ele>106.0</ele><time>2026-04-03T13:13:47Z</time></trkpt><trkpt lat="43.70614165317167" lon="11.216408682534436"><ele>106.0</ele><time>2026-04-03T13:13:48Z</time></trkpt><trkpt lat="43.70601138018045" lon="11.21636741805999"><ele>106.0</ele><time>2026-04-03T13:13:49Z</time></trkpt><trkpt lat="43.70588818609622" lon="11.216339916102779"><ele>109.4</ele><time>2026-04-03T13:13:50Z</time></trkpt><trkpt lat="43.70578421347177" lon="11.216313816798321"><ele>112.8</ele><time>2026-04-03T13:13:51Z</time></trkpt><trkpt lat="43.70568460773298" lon="11.216289545610856"><ele>116.20000000000002</ele><time>2026-04-03T13:13:52Z</time></trkpt><trkpt lat="43.70558156154274" lon="11.216268349183174"><ele>119.60000000000001</ele><time>2026-04-03T13:13:53Z</time></trkpt><trkpt lat="43.70546864500077" lon="11.216241551479476"><ele>123.0</ele><time>2026-04-03T13:13:54Z</time></trkpt><trkpt lat="43.70535521281627" lon="11.216196594890393"><ele>125.83333333333333</ele><time>2026-04-03T13:13:55Z</time></trkpt><trkpt lat="43.70524273394553" lon="11.216156356169748"><ele>128.66666666666666</ele><time>2026-04-03T13:13:56Z</time></trkpt><trkpt lat="43.705142776714126" lon="11.216148265402941"><ele>131.5</ele><time>2026-04-03T13:13:57Z</time></trkpt><trkpt lat="43.70506771344936" lon="11.21616670159065"><ele>134.33333333333331</ele><time>2026-04-03T13:13:58Z</time></trkpt><trkpt lat="43.704998753775726" lon="11.216191108132799"><ele>137.16666666666666</ele><time>2026-04-03T13:13:59Z</time></trkpt><trkpt lat="43.704925689661714" lon="11.216224011671642"><ele>140.0</ele><time>2026-04-03T13:14:00Z</time></trkpt><trkpt lat="43.7048500895231" lon="11.216235330057637"><ele>140.0</ele><time>2026-04-03T13:14:01Z</time></trkpt><trkpt lat="43.70477128388103" lon="11.216227944573749"><ele>140.0</ele><time>2026-04-03T13:14:02Z</time></trkpt><trkpt lat="43.704694828695175" lon="11.216233353900828"><ele>140.0</ele><time>2026-04-03T13:14:03Z</time></trkpt><trkpt lat="43.70460417623017" lon="11.216230905536419"><ele>140.0</ele><time>2026-04-03T13:14:04Z</time></trkpt><trkpt lat="43.70450772543667" lon="11.216242264872989"><ele>140.0</ele><time>2026-04-03T13:14:05Z</time></trkpt><trkpt lat="43.70441624149521" lon="11.216221317927971"><ele>140.0</ele><time>2026-04-03T13:14:06Z</time></trkpt><trkpt lat="43.7043293351685" lon="11.216213203244378"><ele>138.33333333333331</ele><time>2026-04-03T13:14:07Z</time></trkpt><trkpt lat="43.70424306625542" lon="11.216196935609162"><ele>136.66666666666666</ele><time>2026-04-03T13:14:08Z</time></trkpt><trkpt lat="43.704161049610086" lon="11.216183268763382"><ele>135.0</ele><time>2026-04-03T13:14:09Z</time></trkpt><trkpt lat="43.704085360201546" lon="11.216171089249265"><ele>133.33333333333334</ele><time>2026-04-03T13:14:10Z</time></trkpt><trkpt lat="43.704011229905106" lon="11.21615232787332"><ele>131.66666666666669</ele><time>2026-04-03T13:14:11Z</time></trkpt><trkpt lat="43.703932466221346" lon="11.216132542132344"><ele>130.0</ele><time>2026-04-03T13:14:12Z</time></trkpt><trkpt lat="43.70386293631436" lon="11.216111465378457"><ele>130.0</ele><time>2026-04-03T13:14:13Z</time></trkpt><trkpt lat="43.703746496144234" lon="11.216081820237656"><ele>130.0</ele><time>2026-04-03T13:14:15Z</time></trkpt><trkpt lat="43.70364031790915" lon="11.216046234892499"><ele>130.0</ele><time>2026-04-03T13:14:17Z</time></trkpt><trkpt lat="43.70354504699908" lon="11.216018246903642"><ele>130.0</ele><time>2026-04-03T13:14:19Z</time></trkpt><trkpt lat="43.70346091480877" lon="11.21596823922644"><ele>130.0</ele><time>2026-04-03T13:14:21Z</time></trkpt><trkpt lat="43.70342862169894" lon="11.215867125793812"><ele>126.50000000000001</ele><time>2026-04-03T13:14:23Z</time></trkpt><trkpt lat="43.70346657092277" lon="11.21577738252462"><ele>123.0</ele><time>2026-04-03T13:14:24Z</time></trkpt><trkpt lat="43.7034689504138" lon="11.215677923380243"><ele>119.5</ele><time>2026-04-03T13:14:25Z</time></trkpt><trkpt lat="43.703441614272734" lon="11.215568409258584"><ele>116.0</ele><time>2026-04-03T13:14:26Z</time></trkpt><trkpt lat="43.70341768867103" lon="11.215462895308102"><ele>112.50000000000001</ele><time>2026-04-03T13:14:27Z</time></trkpt><trkpt lat="43.703392617225944" lon="11.215355455729712"><ele>109.0</ele><time>2026-04-03T13:14:28Z</time></trkpt><trkpt lat="43.70336577943666" lon="11.215241048860998"><ele>107.83333333333334</ele><time>2026-04-03T13:14:29Z</time></trkpt><trkpt lat="43.70334025973554" lon="11.215126989210747"><ele>106.66666666666667</ele><time>2026-04-03T13:14:30Z</time></trkpt><trkpt lat="43.70331606738426" lon="11.2150129189762"><ele>105.5</ele><time>2026-04-03T13:14:31Z</time></trkpt><trkpt lat="43.70329169773062" lon="11.214897116279374"><ele>104.33333333333334</ele><time>2026-04-03T13:14:32Z</time></trkpt><trkpt lat="43.70326846078289" lon="11.214785621602122"><ele>103.16666666666667</ele><time>2026-04-03T13:14:33Z</time></trkpt><trkpt lat="43.70324659836853" lon="11.214680720060695"><ele>102.0</ele><time>2026-04-03T13:14:34Z</time></trkpt><trkpt lat="43.70325869038054" lon="11.214489537118894"><ele>102.0</ele><time>2026-04-03T13:14:36Z</time></trkpt><trkpt lat="43.703230085091555" lon="11.21436941276296"><ele>102.0</ele><time>2026-04-03T13:14:38Z</time></trkpt><trkpt lat="43.703113355397726" lon="11.214398622099058"><ele>102.0</ele><time>2026-04-03T13:14:45Z</time></trkpt><trkpt lat="43.70318983485244" lon="11.214336812512967"><ele>102.0</ele><time>2026-04-03T13:14:47Z</time></trkpt><trkpt lat="43.703103399807055" lon="11.214412635665564"><ele>102.0</ele><time>2026-04-03T13:14:59Z</time></trkpt><trkpt lat="43.703055326847185" lon="11.214513902945564"><ele>102.0</ele><time>2026-04-03T13:15:00Z</time></trkpt><trkpt lat="43.7029950718124" lon="11.214620734265635"><ele>102.0</ele><time>2026-04-03T13:15:01Z</time></trkpt><trkpt lat="43.702926585003866" lon="11.214717596997437"><ele>102.0</ele><time>2026-04-03T13:15:02Z</time></trkpt><trkpt lat="43.70283459135308" lon="11.21482353106912"><ele>102.0</ele><time>2026-04-03T13:15:03Z</time></trkpt><trkpt lat="43.702728811477975" lon="11.214924997711309"><ele>102.0</ele><time>2026-04-03T13:15:04Z</time></trkpt><trkpt lat="43.70261826325147" lon="11.215018751961274"><ele>98.5</ele><time>2026-04-03T13:15:05Z</time></trkpt><trkpt lat="43.702517569280246" lon="11.215088695839817"><ele>95.0</ele><time>2026-04-03T13:15:06Z</time></trkpt><trkpt lat="43.70241470518445" lon="11.21515059803933"><ele>91.5</ele><time>2026-04-03T13:15:07Z</time></trkpt><trkpt lat="43.70228795255919" lon="11.215174365584597"><ele>88.0</ele><time>2026-04-03T13:15:08Z</time></trkpt><trkpt lat="43.70215727542814" lon="11.215215762297095"><ele>88.0</ele><time>2026-04-03T13:15:09Z</time></trkpt><trkpt lat="43.702019659407966" lon="11.215259988112747"><ele>88.0</ele><time>2026-04-03T13:15:10Z</time></trkpt><trkpt lat="43.701874288036905" lon="11.215254873946236"><ele>88.0</ele><time>2026-04-03T13:15:11Z</time></trkpt><trkpt lat="43.701727475672854" lon="11.215252371600785"><ele>88.0</ele><time>2026-04-03T13:15:12Z</time></trkpt><trkpt lat="43.70157586593323" lon="11.215236552547092"><ele>87.75</ele><time>2026-04-03T13:15:13Z</time></trkpt><trkpt lat="43.70141922619411" lon="11.215204896563394"><ele>87.5</ele><time>2026-04-03T13:15:14Z</time></trkpt><trkpt lat="43.70127763999385" lon="11.215147427478149"><ele>87.25</ele><time>2026-04-03T13:15:15Z</time></trkpt><trkpt lat="43.7011569398475" lon="11.21507389670818"><ele>87.0</ele><time>2026-04-03T13:15:16Z</time></trkpt><trkpt lat="43.70103466114896" lon="11.215029186816855"><ele>86.75</ele><time>2026-04-03T13:15:17Z</time></trkpt><trkpt lat="43.70092731674881" lon="11.214925484420466"><ele>86.5</ele><time>2026-04-03T13:15:18Z</time></trkpt><trkpt lat="43.70082638657112" lon="11.214810948649307"><ele>86.25</ele><time>2026-04-03T13:15:19Z</time></trkpt><trkpt lat="43.700727661207104" lon="11.214681630702787"><ele>86.0</ele><time>2026-04-03T13:15:20Z</time></trkpt><trkpt lat="43.70063299285069" lon="11.214533662461928"><ele>86.0</ele><time>2026-04-03T13:15:21Z</time></trkpt><trkpt lat="43.700544296922786" lon="11.21435929497412"><ele>86.0</ele><time>2026-04-03T13:15:22Z</time></trkpt><trkpt lat="43.70046401369828" lon="11.214168319155657"><ele>86.0</ele><time>2026-04-03T13:15:23Z</time></trkpt><trkpt lat="43.70043614144591" lon="11.21395523861301"><ele>86.0</ele><time>2026-04-03T13:15:24Z</time></trkpt><trkpt lat="43.700378399401444" lon="11.213762973983632"><ele>86.0</ele><time>2026-04-03T13:15:25Z</time></trkpt><trkpt lat="43.7003390569915" lon="11.213576761516437"><ele>86.0</ele><time>2026-04-03T13:15:26Z</time></trkpt><trkpt lat="43.70029545767726" lon="11.213387241826306"><ele>86.0</ele><time>2026-04-03T13:15:27Z</time></trkpt><trkpt lat="43.700242924409146" lon="11.213193795172089"><ele>85.33333333333334</ele><time>2026-04-03T13:15:28Z</time></trkpt><trkpt lat="43.700172901181986" lon="11.21295133724428"><ele>84.66666666666667</ele><time>2026-04-03T13:15:29Z</time></trkpt><trkpt lat="43.70009146688196" lon="11.212758602137091"><ele>84.0</ele><time>2026-04-03T13:15:30Z</time></trkpt><trkpt lat="43.69998871261491" lon="11.21256485783067"><ele>84.0</ele><time>2026-04-03T13:15:31Z</time></trkpt><trkpt lat="43.699862168469814" lon="11.212403370740766"><ele>84.0</ele><time>2026-04-03T13:15:32Z</time></trkpt><trkpt lat="43.699721211959115" lon="11.212245282682554"><ele>84.0</ele><time>2026-04-03T13:15:33Z</time></trkpt><trkpt lat="43.69958147892703" lon="11.212117522808212"><ele>85.0</ele><time>2026-04-03T13:15:34Z</time></trkpt><trkpt lat="43.69942775421293" lon="11.212006346141232"><ele>86.0</ele><time>2026-04-03T13:15:35Z</time></trkpt><trkpt lat="43.69925987712916" lon="11.21191840557947"><ele>87.0</ele><time>2026-04-03T13:15:36Z</time></trkpt><trkpt lat="43.699086919561225" lon="11.211856429739306"><ele>87.0</ele><time>2026-04-03T13:15:37Z</time></trkpt><trkpt lat="43.69891618218001" lon="11.211768209644934"><ele>87.0</ele><time>2026-04-03T13:15:38Z</time></trkpt><trkpt lat="43.698737393983215" lon="11.211699671027244"><ele>87.0</ele><time>2026-04-03T13:15:39Z</time></trkpt><trkpt lat="43.69856714614043" lon="11.21165870343847"><ele>87.66666666666667</ele><time>2026-04-03T13:15:40Z</time></trkpt><trkpt lat="43.698394466903665" lon="11.21157970396458"><ele>88.33333333333334</ele><time>2026-04-03T13:15:41Z</time></trkpt><trkpt lat="43.69822708461859" lon="11.211499536935069"><ele>89.0</ele><time>2026-04-03T13:15:42Z</time></trkpt><trkpt lat="43.69806200688112" lon="11.211439232261922"><ele>87.33333333333334</ele><time>2026-04-03T13:15:43Z</time></trkpt><trkpt lat="43.6978931854678" lon="11.211388382780724"><ele>85.66666666666667</ele><time>2026-04-03T13:15:44Z</time></trkpt><trkpt lat="43.697718447057696" lon="11.211337422307286"><ele>84.0</ele><time>2026-04-03T13:15:45Z</time></trkpt><trkpt lat="43.69754929776745" lon="11.211286865403716"><ele>84.0</ele><time>2026-04-03T13:15:46Z</time></trkpt><trkpt lat="43.69737017635309" lon="11.211239766791095"><ele>84.0</ele><time>2026-04-03T13:15:47Z</time></trkpt><trkpt lat="43.69718182068103" lon="11.211204750949369"><ele>84.0</ele><time>2026-04-03T13:15:48Z</time></trkpt><trkpt lat="43.696987933969275" lon="11.21118646622788"><ele>86.0</ele><time>2026-04-03T13:15:49Z</time></trkpt><trkpt lat="43.6967956401778" lon="11.211174842845896"><ele>88.0</ele><time>2026-04-03T13:15:50Z</time></trkpt><trkpt lat="43.696598645419506" lon="11.21117467398351"><ele>90.0</ele><time>2026-04-03T13:15:51Z</time></trkpt><trkpt lat="43.69640298269254" lon="11.21118725227006"><ele>90.0</ele><time>2026-04-03T13:15:52Z</time></trkpt><trkpt lat="43.69621980102839" lon="11.211202333300873"><ele>90.0</ele><time>2026-04-03T13:15:53Z</time></trkpt><trkpt lat="43.696040090278636" lon="11.211220439704897"><ele>90.0</ele><time>2026-04-03T13:15:54Z</time></trkpt><trkpt lat="43.695871796912854" lon="11.21124551019985"><ele>90.0</ele><time>2026-04-03T13:15:55Z</time></trkpt><trkpt lat="43.69568723050734" lon="11.211285436785005"><ele>90.0</ele><time>2026-04-03T13:15:56Z</time></trkpt><trkpt lat="43.69550844427073" lon="11.21132794749076"><ele>90.0</ele><time>2026-04-03T13:15:57Z</time></trkpt><trkpt lat="43.69533299675038" lon="11.211393269514728"><ele>90.66666666666667</ele><time>2026-04-03T13:15:58Z</time></trkpt><trkpt lat="43.69515623481855" lon="11.211474547307528"><ele>91.33333333333334</ele><time>2026-04-03T13:15:59Z</time></trkpt><trkpt lat="43.694975031751525" lon="11.211565248127785"><ele>92.0</ele><time>2026-04-03T13:16:00Z</time></trkpt><trkpt lat="43.69479020932749" lon="11.211637666330946"><ele>92.0</ele><time>2026-04-03T13:16:01Z</time></trkpt><trkpt lat="43.69462057664697" lon="11.211724929828362"><ele>92.0</ele><time>2026-04-03T13:16:02Z</time></trkpt><trkpt lat="43.69445611293465" lon="11.211826045212758"><ele>92.0</ele><time>2026-04-03T13:16:03Z</time></trkpt><trkpt lat="43.69430151613599" lon="11.211903688741245"><ele>90.66666666666667</ele><time>2026-04-03T13:16:04Z</time></trkpt><trkpt lat="43.694147524786814" lon="11.211980777210895"><ele>89.33333333333333</ele><time>2026-04-03T13:16:05Z</time></trkpt><trkpt lat="43.694002529593924" lon="11.212057915369531"><ele>88.0</ele><time>2026-04-03T13:16:06Z</time></trkpt><trkpt lat="43.69386925938351" lon="11.212132338357986"><ele>88.0</ele><time>2026-04-03T13:16:07Z</time></trkpt><trkpt lat="43.69373771463417" lon="11.21221726147586"><ele>88.0</ele><time>2026-04-03T13:16:08Z</time></trkpt><trkpt lat="43.69360279573954" lon="11.212299843433874"><ele>88.0</ele><time>2026-04-03T13:16:09Z</time></trkpt><trkpt lat="43.69346931365644" lon="11.212371648147089"><ele>88.0</ele><time>2026-04-03T13:16:10Z</time></trkpt><trkpt lat="43.69333285977563" lon="11.212453166876136"><ele>90.25</ele><time>2026-04-03T13:16:11Z</time></trkpt><trkpt lat="43.69320286639178" lon="11.212519741091155"><ele>92.5</ele><time>2026-04-03T13:16:12Z</time></trkpt><trkpt lat="43.693072371848814" lon="11.212587149043339"><ele>94.75</ele><time>2026-04-03T13:16:13Z</time></trkpt><trkpt lat="43.692943922023325" lon="11.212650408740659"><ele>97.0</ele><time>2026-04-03T13:16:14Z</time></trkpt><trkpt lat="43.69281663863945" lon="11.212711163096355"><ele>95.8</ele><time>2026-04-03T13:16:15Z</time></trkpt><trkpt lat="43.6926991205683" lon="11.212754028700386"><ele>94.6</ele><time>2026-04-03T13:16:16Z</time></trkpt><trkpt lat="43.69259193586549" lon="11.212756880237198"><ele>93.39999999999999</ele><time>2026-04-03T13:16:17Z</time></trkpt><trkpt lat="43.69249042548628" lon="11.212770271471374"><ele>92.19999999999999</ele><time>2026-04-03T13:16:18Z</time></trkpt><trkpt lat="43.69239360461746" lon="11.212793552823882"><ele>91.0</ele><time>2026-04-03T13:16:19Z</time></trkpt><trkpt lat="43.69229006777471" lon="11.212788720999447"><ele>91.0</ele><time>2026-04-03T13:16:20Z</time></trkpt><trkpt lat="43.69218044717702" lon="11.212774599446286"><ele>91.0</ele><time>2026-04-03T13:16:21Z</time></trkpt><trkpt lat="43.69207034943463" lon="11.21275251837902"><ele>91.0</ele><time>2026-04-03T13:16:22Z</time></trkpt><trkpt lat="43.691958752414976" lon="11.212714047428333"><ele>91.0</ele><time>2026-04-03T13:16:23Z</time></trkpt><trkpt lat="43.69184639732908" lon="11.212675342607525"><ele>91.25</ele><time>2026-04-03T13:16:24Z</time></trkpt><trkpt lat="43.69173068308396" lon="11.212622690894353"><ele>91.5</ele><time>2026-04-03T13:16:25Z</time></trkpt><trkpt lat="43.691617119288125" lon="11.212571249571315"><ele>91.75</ele><time>2026-04-03T13:16:26Z</time></trkpt><trkpt lat="43.691503019578995" lon="11.212524977963765"><ele>92.0</ele><time>2026-04-03T13:16:27Z</time></trkpt><trkpt lat="43.691386449047286" lon="11.212468401350092"><ele>92.0</ele><time>2026-04-03T13:16:28Z</time></trkpt><trkpt lat="43.691276734766625" lon="11.212421689554827"><ele>92.0</ele><time>2026-04-03T13:16:29Z</time></trkpt><trkpt lat="43.69115504237513" lon="11.21236430483504"><ele>92.0</ele><time>2026-04-03T13:16:30Z</time></trkpt><trkpt lat="43.69102067254826" lon="11.21230810221299"><ele>92.0</ele><time>2026-04-03T13:16:31Z</time></trkpt><trkpt lat="43.6908850412439" lon="11.212247796847453"><ele>92.25</ele><time>2026-04-03T13:16:32Z</time></trkpt><trkpt lat="43.69075218783319" lon="11.212191743465732"><ele>92.5</ele><time>2026-04-03T13:16:33Z</time></trkpt><trkpt lat="43.690607524129646" lon="11.212124436799412"><ele>92.75</ele><time>2026-04-03T13:16:34Z</time></trkpt><trkpt lat="43.69045868003889" lon="11.212063755375361"><ele>93.0</ele><time>2026-04-03T13:16:35Z</time></trkpt><trkpt lat="43.690331955613814" lon="11.21200399037426"><ele>92.75</ele><time>2026-04-03T13:16:36Z</time></trkpt><trkpt lat="43.69020820505259" lon="11.21194971081243"><ele>92.5</ele><time>2026-04-03T13:16:37Z</time></trkpt><trkpt lat="43.6900811775974" lon="11.21189840246701"><ele>92.25</ele><time>2026-04-03T13:16:38Z</time></trkpt><trkpt lat="43.68996042276477" lon="11.211838933980356"><ele>92.0</ele><time>2026-04-03T13:16:39Z</time></trkpt><trkpt lat="43.68984119561136" lon="11.211786755410781"><ele>92.0</ele><time>2026-04-03T13:16:40Z</time></trkpt><trkpt lat="43.68972115808294" lon="11.211732183571996"><ele>92.0</ele><time>2026-04-03T13:16:41Z</time></trkpt><trkpt lat="43.68960453328062" lon="11.21168819491336"><ele>92.0</ele><time>2026-04-03T13:16:42Z</time></trkpt><trkpt lat="43.68948494028773" lon="11.211649550725785"><ele>92.0</ele><time>2026-04-03T13:16:43Z</time></trkpt><trkpt lat="43.68936527613424" lon="11.211609265875857"><ele>92.25</ele><time>2026-04-03T13:16:44Z</time></trkpt><trkpt lat="43.68923801837338" lon="11.211577051712581"><ele>92.5</ele><time>2026-04-03T13:16:45Z</time></trkpt><trkpt lat="43.689107646138375" lon="11.211546789366613"><ele>92.75</ele><time>2026-04-03T13:16:46Z</time></trkpt><trkpt lat="43.68898193394867" lon="11.211508647298787"><ele>93.0</ele><time>2026-04-03T13:16:47Z</time></trkpt><trkpt lat="43.68884014356962" lon="11.211478995268587"><ele>92.5</ele><time>2026-04-03T13:16:48Z</time></trkpt><trkpt lat="43.688685825955986" lon="11.211469456632235"><ele>92.0</ele><time>2026-04-03T13:16:49Z</time></trkpt><trkpt lat="43.68856186608543" lon="11.211480292028352"><ele>91.5</ele><time>2026-04-03T13:16:50Z</time></trkpt><trkpt lat="43.68841756618435" lon="11.21149146603059"><ele>91.0</ele><time>2026-04-03T13:16:51Z</time></trkpt><trkpt lat="43.68828399979475" lon="11.211524800785545"><ele>93.5</ele><time>2026-04-03T13:16:52Z</time></trkpt><trkpt lat="43.688144054740974" lon="11.211520294200838"><ele>96.0</ele><time>2026-04-03T13:16:53Z</time></trkpt><trkpt lat="43.68800410444235" lon="11.211516225122567"><ele>98.5</ele><time>2026-04-03T13:16:54Z</time></trkpt><trkpt lat="43.68786248796378" lon="11.211522687846808"><ele>101.0</ele><time>2026-04-03T13:16:55Z</time></trkpt><trkpt lat="43.68771856661953" lon="11.211528501739947"><ele>101.25</ele><time>2026-04-03T13:16:56Z</time></trkpt><trkpt lat="43.68757358266954" lon="11.211529162368688"><ele>101.5</ele><time>2026-04-03T13:16:57Z</time></trkpt><trkpt lat="43.68742702660435" lon="11.21153385627854"><ele>101.75</ele><time>2026-04-03T13:16:58Z</time></trkpt><trkpt lat="43.687274022159826" lon="11.211544008726722"><ele>102.0</ele><time>2026-04-03T13:16:59Z</time></trkpt><trkpt lat="43.68713653584123" lon="11.211550593320062"><ele>102.0</ele><time>2026-04-03T13:17:00Z</time></trkpt><trkpt lat="43.68698994350072" lon="11.211558120140573"><ele>102.0</ele><time>2026-04-03T13:17:01Z</time></trkpt><trkpt lat="43.68684873108786" lon="11.211584467205961"><ele>102.0</ele><time>2026-04-03T13:17:02Z</time></trkpt><trkpt lat="43.68670042026894" lon="11.211591666235286"><ele>102.0</ele><time>2026-04-03T13:17:03Z</time></trkpt><trkpt lat="43.686556181199734" lon="11.211609821573642"><ele>102.5</ele><time>2026-04-03T13:17:04Z</time></trkpt><trkpt lat="43.68640893762522" lon="11.211615715696377"><ele>103.0</ele><time>2026-04-03T13:17:05Z</time></trkpt><trkpt lat="43.686280818580876" lon="11.21162752587959"><ele>103.5</ele><time>2026-04-03T13:17:06Z</time></trkpt><trkpt lat="43.68615847362023" lon="11.211640430877965"><ele>104.0</ele><time>2026-04-03T13:17:07Z</time></trkpt><trkpt lat="43.68603006767823" lon="11.211655943378936"><ele>104.75</ele><time>2026-04-03T13:17:08Z</time></trkpt><trkpt lat="43.68589318190458" lon="11.211681399212171"><ele>105.5</ele><time>2026-04-03T13:17:09Z</time></trkpt><trkpt lat="43.685751530606794" lon="11.211715744132631"><ele>106.25</ele><time>2026-04-03T13:17:10Z</time></trkpt><trkpt lat="43.68561502502602" lon="11.211753710313763"><ele>107.0</ele><time>2026-04-03T13:17:11Z</time></trkpt><trkpt lat="43.685486703425376" lon="11.21179737479182"><ele>107.0</ele><time>2026-04-03T13:17:12Z</time></trkpt><trkpt lat="43.68535144068102" lon="11.211838326753274"><ele>107.0</ele><time>2026-04-03T13:17:13Z</time></trkpt><trkpt lat="43.685217206780784" lon="11.211871011035557"><ele>107.0</ele><time>2026-04-03T13:17:14Z</time></trkpt><trkpt lat="43.685076543345744" lon="11.21190002337986"><ele>107.0</ele><time>2026-04-03T13:17:15Z</time></trkpt><trkpt lat="43.68492703694704" lon="11.211934568011733"><ele>108.25</ele><time>2026-04-03T13:17:16Z</time></trkpt><trkpt lat="43.68478261421308" lon="11.21196560482075"><ele>109.5</ele><time>2026-04-03T13:17:17Z</time></trkpt><trkpt lat="43.68464757161904" lon="11.212012081096352"><ele>110.75</ele><time>2026-04-03T13:17:18Z</time></trkpt><trkpt lat="43.684510259788894" lon="11.212057992079165"><ele>112.0</ele><time>2026-04-03T13:17:19Z</time></trkpt><trkpt lat="43.68436345424998" lon="11.212082941314053"><ele>112.0</ele><time>2026-04-03T13:17:20Z</time></trkpt><trkpt lat="43.68424556554435" lon="11.212128984315514"><ele>112.0</ele><time>2026-04-03T13:17:21Z</time></trkpt><trkpt lat="43.684116579420056" lon="11.212163047053156"><ele>112.0</ele><time>2026-04-03T13:17:22Z</time></trkpt><trkpt lat="43.68399606864463" lon="11.212184728575005"><ele>112.0</ele><time>2026-04-03T13:17:23Z</time></trkpt><trkpt lat="43.68388885197575" lon="11.21222016129633"><ele>112.0</ele><time>2026-04-03T13:17:24Z</time></trkpt><trkpt lat="43.68377848735444" lon="11.212245602699365"><ele>112.0</ele><time>2026-04-03T13:17:25Z</time></trkpt><trkpt lat="43.683659658290736" lon="11.212275900964588"><ele>112.0</ele><time>2026-04-03T13:17:26Z</time></trkpt><trkpt lat="43.683544813638726" lon="11.21232406367189"><ele>112.0</ele><time>2026-04-03T13:17:27Z</time></trkpt><trkpt lat="43.683429907245156" lon="11.212383691475589"><ele>108.25</ele><time>2026-04-03T13:17:28Z</time></trkpt><trkpt lat="43.68331811856322" lon="11.212458021353285"><ele>104.5</ele><time>2026-04-03T13:17:29Z</time></trkpt><trkpt lat="43.68321310218485" lon="11.212536525406346"><ele>100.75</ele><time>2026-04-03T13:17:30Z</time></trkpt><trkpt lat="43.683116032901275" lon="11.212621044121162"><ele>97.0</ele><time>2026-04-03T13:17:31Z</time></trkpt><trkpt lat="43.683014054943904" lon="11.212685830788683"><ele>97.0</ele><time>2026-04-03T13:17:32Z</time></trkpt><trkpt lat="43.682907706805715" lon="11.212761942904446"><ele>97.0</ele><time>2026-04-03T13:17:33Z</time></trkpt><trkpt lat="43.68278520636625" lon="11.212802423571064"><ele>97.0</ele><time>2026-04-03T13:17:34Z</time></trkpt><trkpt lat="43.68265770421903" lon="11.212855358730486"><ele>97.0</ele><time>2026-04-03T13:17:35Z</time></trkpt><trkpt lat="43.682536019568936" lon="11.21288401533607"><ele>97.0</ele><time>2026-04-03T13:17:36Z</time></trkpt><trkpt lat="43.68240708469025" lon="11.212885296543542"><ele>97.0</ele><time>2026-04-03T13:17:37Z</time></trkpt><trkpt lat="43.682283798789804" lon="11.21286600051815"><ele>97.0</ele><time>2026-04-03T13:17:38Z</time></trkpt><trkpt lat="43.6821697422241" lon="11.212832012463553"><ele>97.0</ele><time>2026-04-03T13:17:39Z</time></trkpt><trkpt lat="43.68205144153437" lon="11.212800042920927"><ele>97.25</ele><time>2026-04-03T13:17:40Z</time></trkpt><trkpt lat="43.681928945076315" lon="11.212753281708137"><ele>97.5</ele><time>2026-04-03T13:17:41Z</time></trkpt><trkpt lat="43.68180436751849" lon="11.21271244366682"><ele>97.75</ele><time>2026-04-03T13:17:42Z</time></trkpt><trkpt lat="43.68168290967411" lon="11.21267748255172"><ele>98.0</ele><time>2026-04-03T13:17:43Z</time></trkpt><trkpt lat="43.68157133669688" lon="11.212649878106083"><ele>98.0</ele><time>2026-04-03T13:17:44Z</time></trkpt><trkpt lat="43.6814622173442" lon="11.212623232563079"><ele>98.0</ele><time>2026-04-03T13:17:45Z</time></trkpt><trkpt lat="43.68134797943515" lon="11.212583993564273"><ele>98.0</ele><time>2026-04-03T13:17:46Z</time></trkpt><trkpt lat="43.68125057705679" lon="11.21252689410304"><ele>98.0</ele><time>2026-04-03T13:17:47Z</time></trkpt><trkpt lat="43.681167916759925" lon="11.212472217327297"><ele>98.0</ele><time>2026-04-03T13:17:48Z</time></trkpt><trkpt lat="43.68111117928073" lon="11.212418591372566"><ele>98.0</ele><time>2026-04-03T13:17:49Z</time></trkpt></trkseg></trk></gpx>